Time,TemperatureF,DewpointF,PressureIn,WindDirection,WindDirectionDegrees,WindSpeedMPH,WindSpeedGustMPH,Humidity,HourlyPrecipIn,Conditions,Clouds,dailyrainin,SoftwareType,DateUTC
2013-03-01 00:00:00,37.0,33.5,29.47,NW,318,0.0,0.0,87,0.00,,---,0.00,VWS V14.00,2013-03-01 05:00:00,
2013-03-01 00:05:00,37.0,33.5,29.47,NW,318,0.0,1.0,87,0.00,,---,0.00,VWS V14.00,2013-03-01 05:05:00,
2013-03-01 00:06:00,37.0,33.5,29.47,NW,318,0.0,1.0,87,0.00,,---,0.00,VWS V14.00,2013-03-01 05:06:00,
2013-03-01 00:10:00,37.0,33.5,29.47,NW,318,0.0,1.0,87,0.00,,---,0.00,VWS V14.00,2013-03-01 05:10:00,
2013-03-01 00:11:00,37.0,33.5,29.47,NW,318,0.0,1.0,87,0.00,,---,0.00,VWS V14.00,2013-03-01 05:11:00,
2013-03-01 00:15:00,37.0,33.5,29.47,NW,318,0.0,0.0,87,0.00,,---,0.00,VWS V14.00,2013-03-01 05:15:00,
2013-03-01 00:16:00,37.0,33.5,29.47,NW,318,0.0,0.0,87,0.00,,---,0.00,VWS V14.00,2013-03-01 05:16:00,
2013-03-01 00:20:00,37.0,33.5,29.47,NW,318,0.0,0.0,87,0.00,,---,0.00,VWS V14.00,2013-03-01 05:20:00,
2013-03-01 00:21:00,37.0,33.5,29.47,NW,318,0.0,0.0,87,0.00,,---,0.00,VWS V14.00,2013-03-01 05:21:00,
2013-03-01 00:25:00,37.0,33.5,29.47,NNW,342,0.0,3.0,87,0.00,,---,0.00,VWS V14.00,2013-03-01 05:25:00,
2013-03-01 00:26:00,37.0,33.5,29.47,NNW,342,0.0,3.0,87,0.00,,---,0.00,VWS V14.00,2013-03-01 05:26:00,
2013-03-01 00:30:00,36.9,33.4,29.48,NNW,342,0.0,0.0,87,0.00,,---,0.00,VWS V14.00,2013-03-01 05:30:00,
2013-03-01 00:31:00,36.9,33.4,29.48,NNW,342,0.0,0.0,87,0.00,,---,0.00,VWS V14.00,2013-03-01 05:31:00,
2013-03-01 00:35:00,36.9,33.4,29.48,NNW,342,0.0,0.0,87,0.00,,---,0.00,VWS V14.00,2013-03-01 05:35:00,
2013-03-01 00:36:00,36.9,33.1,29.48,NNW,342,0.0,0.0,86,0.00,,---,0.00,VWS V14.00,2013-03-01 05:36:00,
2013-03-01 00:40:00,36.9,33.1,29.48,NNW,342,0.0,1.0,86,0.00,,---,0.00,VWS V14.00,2013-03-01 05:40:00,
2013-03-01 00:41:00,36.9,33.1,29.48,NNW,342,0.0,1.0,86,0.00,,---,0.00,VWS V14.00,2013-03-01 05:41:00,
2013-03-01 00:45:00,36.9,33.1,29.48,NNW,342,0.0,1.0,86,0.00,,---,0.00,VWS V14.00,2013-03-01 05:45:00,
2013-03-01 00:47:00,36.8,33.0,29.48,NNW,342,0.0,1.0,86,0.00,,---,0.00,VWS V14.00,2013-03-01 05:47:00,
2013-03-01 00:50:00,36.8,33.0,29.48,NNW,344,0.0,2.0,86,0.00,,---,0.00,VWS V14.00,2013-03-01 05:50:00,
2013-03-01 00:51:00,36.8,33.0,29.48,NNW,344,0.0,2.0,86,0.00,,---,0.00,VWS V14.00,2013-03-01 05:51:00,
2013-03-01 00:52:00,36.8,33.0,29.48,ENE,63,1.0,3.0,86,0.00,,---,0.00,VWS V14.00,2013-03-01 05:52:00,
2013-03-01 00:55:00,36.6,32.8,29.48,ENE,63,0.0,3.0,86,0.00,,---,0.00,VWS V14.00,2013-03-01 05:55:00,
2013-03-01 00:56:00,36.6,32.8,29.48,ENE,63,0.0,3.0,86,0.00,,---,0.00,VWS V14.00,2013-03-01 05:56:00,
2013-03-01 00:57:00,36.6,32.8,29.48,ENE,63,0.0,3.0,86,0.00,,---,0.00,VWS V14.00,2013-03-01 05:57:00,
2013-03-01 01:00:00,36.6,32.8,29.48,ENE,63,0.0,3.0,86,0.00,,---,0.00,VWS V14.00,2013-03-01 06:00:00,
2013-03-01 01:01:00,36.6,32.8,29.48,ENE,63,0.0,0.0,86,0.00,,---,0.00,VWS V14.00,2013-03-01 06:01:00,
2013-03-01 01:02:00,36.6,32.8,29.48,ENE,63,0.0,0.0,86,0.00,,---,0.00,VWS V14.00,2013-03-01 06:02:00,
2013-03-01 01:06:00,36.5,32.7,29.48,ENE,63,0.0,0.0,86,0.00,,---,0.00,VWS V14.00,2013-03-01 06:06:00,
2013-03-01 01:07:00,36.5,32.7,29.48,ENE,63,0.0,0.0,86,0.00,,---,0.00,VWS V14.00,2013-03-01 06:07:00,
2013-03-01 01:11:00,36.5,32.7,29.48,ENE,63,0.0,2.0,86,0.00,,---,0.00,VWS V14.00,2013-03-01 06:11:00,
2013-03-01 01:12:00,36.5,32.7,29.48,ENE,63,0.0,2.0,86,0.00,,---,0.00,VWS V14.00,2013-03-01 06:12:00,
2013-03-01 01:15:00,36.3,32.5,29.48,ENE,63,0.0,2.0,86,0.00,,---,0.00,VWS V14.00,2013-03-01 06:15:00,
2013-03-01 01:16:00,36.3,32.5,29.48,ENE,63,0.0,0.0,86,0.00,,---,0.00,VWS V14.00,2013-03-01 06:16:00,
2013-03-01 01:17:00,36.3,32.5,29.48,ENE,63,0.0,0.0,86,0.00,,---,0.00,VWS V14.00,2013-03-01 06:17:00,
2013-03-01 01:21:00,36.3,32.5,29.48,ENE,63,0.0,1.0,86,0.00,,---,0.00,VWS V14.00,2013-03-01 06:21:00,
2013-03-01 01:22:00,36.3,32.5,29.48,ENE,63,0.0,1.0,86,0.00,,---,0.00,VWS V14.00,2013-03-01 06:22:00,
2013-03-01 01:26:00,36.3,32.8,29.48,ENE,63,0.0,1.0,87,0.00,,---,0.00,VWS V14.00,2013-03-01 06:26:00,
2013-03-01 01:27:00,36.3,32.8,29.48,ENE,63,0.0,1.0,87,0.00,,---,0.00,VWS V14.00,2013-03-01 06:27:00,
2013-03-01 01:30:00,36.3,32.8,29.48,ENE,63,0.0,1.0,87,0.00,,---,0.00,VWS V14.00,2013-03-01 06:30:00,
2013-03-01 01:31:00,36.3,32.8,29.48,ENE,63,0.0,0.0,87,0.00,,---,0.00,VWS V14.00,2013-03-01 06:31:00,
2013-03-01 01:32:00,36.3,32.8,29.48,ENE,63,0.0,0.0,87,0.00,,---,0.00,VWS V14.00,2013-03-01 06:32:00,
2013-03-01 01:36:00,36.3,32.8,29.48,ENE,63,0.0,0.0,87,0.00,,---,0.00,VWS V14.00,2013-03-01 06:36:00,
2013-03-01 01:37:00,36.3,32.8,29.48,ENE,63,0.0,0.0,87,0.00,,---,0.00,VWS V14.00,2013-03-01 06:37:00,
2013-03-01 01:41:00,36.3,32.8,29.48,ENE,63,0.0,2.0,87,0.00,,---,0.00,VWS V14.00,2013-03-01 06:41:00,
2013-03-01 01:42:00,36.3,32.8,29.48,ENE,63,0.0,2.0,87,0.00,,---,0.00,VWS V14.00,2013-03-01 06:42:00,
2013-03-01 01:45:00,36.3,32.8,29.48,ENE,63,0.0,2.0,87,0.00,,---,0.00,VWS V14.00,2013-03-01 06:45:00,
2013-03-01 01:46:00,36.3,32.8,29.48,ENE,60,1.0,1.0,87,0.00,,---,0.00,VWS V14.00,2013-03-01 06:46:00,
2013-03-01 01:47:00,36.3,32.8,29.48,ENE,60,0.0,1.0,87,0.00,,---,0.00,VWS V14.00,2013-03-01 06:47:00,
2013-03-01 01:51:00,36.2,32.7,29.48,North,0,2.0,4.0,87,0.00,,---,0.00,VWS V14.00,2013-03-01 06:51:00,
2013-03-01 01:52:00,36.2,32.7,29.48,North,0,0.0,4.0,87,0.00,,---,0.00,VWS V14.00,2013-03-01 06:52:00,
2013-03-01 01:56:00,36.0,32.2,29.48,North,0,0.0,4.0,86,0.00,,---,0.00,VWS V14.00,2013-03-01 06:56:00,
2013-03-01 01:57:00,36.0,32.2,29.48,North,0,0.0,4.0,86,0.00,,---,0.00,VWS V14.00,2013-03-01 06:57:00,
2013-03-01 02:00:00,36.0,32.2,29.48,North,0,1.0,4.0,86,0.00,,---,0.00,VWS V14.00,2013-03-01 07:00:00,
2013-03-01 02:01:00,36.0,32.2,29.48,North,0,0.0,1.0,86,0.00,,---,0.00,VWS V14.00,2013-03-01 07:01:00,
2013-03-01 02:02:00,35.9,32.1,29.48,North,0,0.0,1.0,86,0.00,,---,0.00,VWS V14.00,2013-03-01 07:02:00,
2013-03-01 02:06:00,35.9,32.1,29.48,North,0,0.0,1.0,86,0.00,,---,0.00,VWS V14.00,2013-03-01 07:06:00,
2013-03-01 02:07:00,35.9,32.1,29.48,North,0,0.0,1.0,86,0.00,,---,0.00,VWS V14.00,2013-03-01 07:07:00,
2013-03-01 02:12:00,35.8,31.7,29.48,North,0,0.0,1.0,85,0.00,,---,0.00,VWS V14.00,2013-03-01 07:12:00,
2013-03-01 02:15:00,35.8,31.7,29.48,North,0,0.0,2.0,85,0.00,,---,0.00,VWS V14.00,2013-03-01 07:15:00,
2013-03-01 02:17:00,35.8,31.7,29.48,North,1,0.0,1.0,85,0.00,,---,0.00,VWS V14.00,2013-03-01 07:17:00,
2013-03-01 02:18:00,35.8,31.7,29.48,North,1,0.0,1.0,85,0.00,,---,0.00,VWS V14.00,2013-03-01 07:18:00,
2013-03-01 02:22:00,35.6,31.2,29.48,ENE,59,1.0,3.0,84,0.00,,---,0.00,VWS V14.00,2013-03-01 07:22:00,
2013-03-01 02:23:00,35.6,31.2,29.48,ENE,59,0.0,3.0,84,0.00,,---,0.00,VWS V14.00,2013-03-01 07:23:00,
2013-03-01 02:27:00,35.6,31.2,29.48,ENE,59,0.0,3.0,84,0.00,,---,0.00,VWS V14.00,2013-03-01 07:27:00,
2013-03-01 02:28:00,35.6,31.2,29.48,ENE,59,0.0,3.0,84,0.00,,---,0.00,VWS V14.00,2013-03-01 07:28:00,
2013-03-01 02:30:00,35.5,30.6,29.48,NE,46,0.0,0.0,82,0.00,,---,0.00,VWS V14.00,2013-03-01 07:30:00,
2013-03-01 02:32:00,35.6,31.0,29.48,ENE,59,0.0,1.0,83,0.00,,---,0.00,VWS V14.00,2013-03-01 07:32:00,
2013-03-01 02:33:00,35.6,31.0,29.48,ENE,59,0.0,1.0,83,0.00,,---,0.00,VWS V14.00,2013-03-01 07:33:00,
2013-03-01 02:37:00,35.6,31.0,29.48,ENE,58,0.0,1.0,83,0.00,,---,0.00,VWS V14.00,2013-03-01 07:37:00,
2013-03-01 02:38:00,35.6,31.0,29.48,ENE,58,0.0,1.0,83,0.00,,---,0.00,VWS V14.00,2013-03-01 07:38:00,
2013-03-01 02:42:00,35.6,31.0,29.48,ENE,58,0.0,1.0,83,0.00,,---,0.00,VWS V14.00,2013-03-01 07:42:00,
2013-03-01 02:43:00,35.6,31.0,29.48,ENE,58,0.0,1.0,83,0.00,,---,0.00,VWS V14.00,2013-03-01 07:43:00,
2013-03-01 02:45:00,35.3,30.4,29.48,NE,46,0.0,0.0,82,0.00,,---,0.00,VWS V14.00,2013-03-01 07:45:00,
2013-03-01 02:47:00,35.6,31.0,29.48,ENE,58,0.0,1.0,83,0.00,,---,0.00,VWS V14.00,2013-03-01 07:47:00,
2013-03-01 02:48:00,35.6,31.0,29.48,ENE,58,0.0,2.0,83,0.00,,---,0.00,VWS V14.00,2013-03-01 07:48:00,
2013-03-01 02:52:00,35.6,31.0,29.48,ENE,58,0.0,2.0,83,0.00,,---,0.00,VWS V14.00,2013-03-01 07:52:00,
2013-03-01 02:53:00,35.6,31.0,29.48,ENE,58,0.0,2.0,83,0.00,,---,0.00,VWS V14.00,2013-03-01 07:53:00,
2013-03-01 02:57:00,35.5,30.9,29.48,ENE,58,0.0,2.0,83,0.00,,---,0.00,VWS V14.00,2013-03-01 07:57:00,
2013-03-01 02:58:00,35.5,30.9,29.48,ENE,58,0.0,2.0,83,0.00,,---,0.00,VWS V14.00,2013-03-01 07:58:00,
2013-03-01 03:00:00,35.3,30.4,29.49,NE,46,0.0,1.0,82,0.00,,---,0.00,VWS V14.00,2013-03-01 08:00:00,
2013-03-01 03:02:00,35.5,30.9,29.48,ENE,58,0.0,1.0,83,0.00,,---,0.00,VWS V14.00,2013-03-01 08:02:00,
2013-03-01 03:03:00,35.5,30.9,29.48,ENE,58,0.0,1.0,83,0.00,,---,0.00,VWS V14.00,2013-03-01 08:03:00,
2013-03-01 03:07:00,35.5,30.9,29.48,NE,46,0.0,2.0,83,0.00,,---,0.00,VWS V14.00,2013-03-01 08:07:00,
2013-03-01 03:08:00,35.5,30.9,29.48,NE,46,0.0,2.0,83,0.00,,---,0.00,VWS V14.00,2013-03-01 08:08:00,
2013-03-01 03:09:00,35.5,30.9,29.48,NE,46,1.0,2.0,83,0.00,,---,0.00,VWS V14.00,2013-03-01 08:09:00,
2013-03-01 03:12:00,35.5,30.6,29.48,NE,46,0.0,2.0,82,0.00,,---,0.00,VWS V14.00,2013-03-01 08:12:00,
2013-03-01 03:13:00,35.5,30.6,29.48,NE,46,0.0,2.0,82,0.00,,---,0.00,VWS V14.00,2013-03-01 08:13:00,
2013-03-01 03:14:00,35.5,30.6,29.48,NE,46,0.0,2.0,82,0.00,,---,0.00,VWS V14.00,2013-03-01 08:14:00,
2013-03-01 03:15:00,35.3,30.4,29.50,NE,46,0.0,1.0,82,0.00,,---,0.00,VWS V14.00,2013-03-01 08:15:00,
2013-03-01 03:18:00,35.5,30.6,29.48,NE,46,0.0,0.0,82,0.00,,---,0.00,VWS V14.00,2013-03-01 08:18:00,
2013-03-01 03:19:00,35.5,30.6,29.48,NE,46,0.0,0.0,82,0.00,,---,0.00,VWS V14.00,2013-03-01 08:19:00,
2013-03-01 03:23:00,35.5,30.6,29.48,NE,46,0.0,0.0,82,0.00,,---,0.00,VWS V14.00,2013-03-01 08:23:00,
2013-03-01 03:24:00,35.5,30.6,29.48,NE,46,0.0,0.0,82,0.00,,---,0.00,VWS V14.00,2013-03-01 08:24:00,
2013-03-01 03:28:00,35.5,30.6,29.48,NE,46,0.0,0.0,82,0.00,,---,0.00,VWS V14.00,2013-03-01 08:28:00,
2013-03-01 03:29:00,35.5,30.6,29.48,NE,46,0.0,0.0,82,0.00,,---,0.00,VWS V14.00,2013-03-01 08:29:00,
2013-03-01 03:30:00,35.2,30.6,29.50,NE,46,0.0,0.0,83,0.00,,---,0.00,VWS V14.00,2013-03-01 08:30:00,
2013-03-01 03:33:00,35.3,30.4,29.48,NE,46,0.0,0.0,82,0.00,,---,0.00,VWS V14.00,2013-03-01 08:33:00,
2013-03-01 03:34:00,35.3,30.4,29.48,NE,46,0.0,0.0,82,0.00,,---,0.00,VWS V14.00,2013-03-01 08:34:00,
2013-03-01 03:35:00,35.3,30.4,29.48,NE,46,0.0,0.0,82,0.00,,---,0.00,VWS V14.00,2013-03-01 08:35:00,
2013-03-01 03:38:00,35.3,30.4,29.48,NE,46,0.0,0.0,82,0.00,,---,0.00,VWS V14.00,2013-03-01 08:38:00,
2013-03-01 03:39:00,35.3,30.4,29.48,NE,46,0.0,0.0,82,0.00,,---,0.00,VWS V14.00,2013-03-01 08:39:00,
2013-03-01 03:40:00,35.3,30.4,29.48,NE,46,0.0,0.0,82,0.00,,---,0.00,VWS V14.00,2013-03-01 08:40:00,
2013-03-01 03:43:00,35.3,30.4,29.48,NE,46,0.0,0.0,82,0.00,,---,0.00,VWS V14.00,2013-03-01 08:43:00,
2013-03-01 03:44:00,35.3,30.4,29.48,NE,46,0.0,0.0,82,0.00,,---,0.00,VWS V14.00,2013-03-01 08:44:00,
2013-03-01 03:45:00,35.3,30.4,29.48,NE,46,0.0,0.0,82,0.00,,---,0.00,VWS V14.00,2013-03-01 08:45:00,
2013-03-01 03:48:00,35.3,30.4,29.48,NE,46,0.0,0.0,82,0.00,,---,0.00,VWS V14.00,2013-03-01 08:48:00,
2013-03-01 03:49:00,35.3,30.4,29.48,NE,46,0.0,0.0,82,0.00,,---,0.00,VWS V14.00,2013-03-01 08:49:00,
2013-03-01 03:50:00,35.3,30.4,29.48,NE,46,0.0,0.0,82,0.00,,---,0.00,VWS V14.00,2013-03-01 08:50:00,
2013-03-01 03:53:00,35.3,30.4,29.48,NE,46,0.0,0.0,82,0.00,,---,0.00,VWS V14.00,2013-03-01 08:53:00,
2013-03-01 03:54:00,35.3,30.4,29.48,NE,46,0.0,0.0,82,0.00,,---,0.00,VWS V14.00,2013-03-01 08:54:00,
2013-03-01 03:55:00,35.3,30.4,29.48,NE,46,0.0,0.0,82,0.00,,---,0.00,VWS V14.00,2013-03-01 08:55:00,
2013-03-01 03:58:00,35.3,30.4,29.48,NE,46,0.0,0.0,82,0.00,,---,0.00,VWS V14.00,2013-03-01 08:58:00,
2013-03-01 03:59:00,35.3,30.4,29.49,NE,46,0.0,0.0,82,0.00,,---,0.00,VWS V14.00,2013-03-01 08:59:00,
2013-03-01 04:00:00,35.3,30.4,29.49,NE,46,1.0,1.0,82,0.00,,---,0.00,VWS V14.00,2013-03-01 09:00:00,
2013-03-01 04:03:00,35.3,30.4,29.49,NE,46,0.0,1.0,82,0.00,,---,0.00,VWS V14.00,2013-03-01 09:03:00,
2013-03-01 04:04:00,35.3,30.4,29.49,NE,46,0.0,1.0,82,0.00,,---,0.00,VWS V14.00,2013-03-01 09:04:00,
2013-03-01 04:05:00,35.3,30.4,29.49,NE,46,0.0,1.0,82,0.00,,---,0.00,VWS V14.00,2013-03-01 09:05:00,
2013-03-01 04:08:00,35.3,30.4,29.49,NE,46,0.0,1.0,82,0.00,,---,0.00,VWS V14.00,2013-03-01 09:08:00,
2013-03-01 04:09:00,35.3,30.4,29.49,NE,46,0.0,1.0,82,0.00,,---,0.00,VWS V14.00,2013-03-01 09:09:00,
2013-03-01 04:10:00,35.3,30.4,29.49,NE,46,0.0,1.0,82,0.00,,---,0.00,VWS V14.00,2013-03-01 09:10:00,
2013-03-01 04:13:00,35.3,30.4,29.50,NE,46,0.0,1.0,82,0.00,,---,0.00,VWS V14.00,2013-03-01 09:13:00,
2013-03-01 04:14:00,35.3,30.4,29.50,NE,46,0.0,0.0,82,0.00,,---,0.00,VWS V14.00,2013-03-01 09:14:00,
2013-03-01 04:15:00,35.3,30.4,29.50,NE,46,0.0,0.0,82,0.00,,---,0.00,VWS V14.00,2013-03-01 09:15:00,
2013-03-01 04:18:00,35.3,30.4,29.50,NE,46,0.0,0.0,82,0.00,,---,0.00,VWS V14.00,2013-03-01 09:18:00,
2013-03-01 04:19:00,35.3,30.4,29.50,NE,46,0.0,0.0,82,0.00,,---,0.00,VWS V14.00,2013-03-01 09:19:00,
2013-03-01 04:21:00,35.3,30.7,29.50,NE,46,0.0,0.0,83,0.00,,---,0.00,VWS V14.00,2013-03-01 09:21:00,
2013-03-01 04:23:00,35.2,30.6,29.50,NE,46,0.0,0.0,83,0.00,,---,0.00,VWS V14.00,2013-03-01 09:23:00,
2013-03-01 04:25:00,35.2,30.6,29.50,NE,46,0.0,0.0,83,0.00,,---,0.00,VWS V14.00,2013-03-01 09:25:00,
2013-03-01 04:26:00,35.2,30.6,29.50,NE,46,0.0,0.0,83,0.00,,---,0.00,VWS V14.00,2013-03-01 09:26:00,
2013-03-01 04:29:00,35.2,30.6,29.50,NE,46,0.0,0.0,83,0.00,,---,0.00,VWS V14.00,2013-03-01 09:29:00,
2013-03-01 04:30:00,35.2,30.6,29.50,NE,46,0.0,0.0,83,0.00,,---,0.00,VWS V14.00,2013-03-01 09:30:00,
2013-03-01 04:31:00,35.2,30.6,29.50,NE,46,0.0,0.0,83,0.00,,---,0.00,VWS V14.00,2013-03-01 09:31:00,
2013-03-01 04:34:00,35.2,30.6,29.50,NE,46,0.0,0.0,83,0.00,,---,0.00,VWS V14.00,2013-03-01 09:34:00,
2013-03-01 04:35:00,35.2,30.6,29.50,NE,46,0.0,0.0,83,0.00,,---,0.00,VWS V14.00,2013-03-01 09:35:00,
2013-03-01 04:36:00,35.2,30.6,29.50,NE,46,0.0,0.0,83,0.00,,---,0.00,VWS V14.00,2013-03-01 09:36:00,
2013-03-01 04:39:00,35.2,30.6,29.50,NE,46,0.0,0.0,83,0.00,,---,0.00,VWS V14.00,2013-03-01 09:39:00,
2013-03-01 04:40:00,35.0,30.4,29.50,NE,46,0.0,0.0,83,0.00,,---,0.00,VWS V14.00,2013-03-01 09:40:00,
2013-03-01 04:41:00,35.0,30.4,29.50,NE,46,0.0,0.0,83,0.00,,---,0.00,VWS V14.00,2013-03-01 09:41:00,
2013-03-01 04:44:00,35.0,30.4,29.50,NE,46,0.0,0.0,83,0.00,,---,0.00,VWS V14.00,2013-03-01 09:44:00,
2013-03-01 04:45:00,35.0,30.4,29.50,NE,46,0.0,0.0,83,0.00,,---,0.00,VWS V14.00,2013-03-01 09:45:00,
2013-03-01 04:46:00,35.0,30.4,29.50,NE,46,0.0,0.0,83,0.00,,---,0.00,VWS V14.00,2013-03-01 09:46:00,
2013-03-01 04:49:00,34.9,30.3,29.50,NE,46,0.0,0.0,83,0.00,,---,0.00,VWS V14.00,2013-03-01 09:49:00,
2013-03-01 04:50:00,34.9,30.3,29.50,NE,46,0.0,0.0,83,0.00,,---,0.00,VWS V14.00,2013-03-01 09:50:00,
2013-03-01 04:51:00,34.9,30.3,29.50,NE,46,0.0,0.0,83,0.00,,---,0.00,VWS V14.00,2013-03-01 09:51:00,
2013-03-01 04:54:00,34.9,30.3,29.50,NE,46,0.0,0.0,83,0.00,,---,0.00,VWS V14.00,2013-03-01 09:54:00,
2013-03-01 04:55:00,34.9,30.3,29.50,NE,46,0.0,0.0,83,0.00,,---,0.00,VWS V14.00,2013-03-01 09:55:00,
2013-03-01 04:57:00,34.9,30.3,29.50,NE,46,0.0,0.0,83,0.00,,---,0.00,VWS V14.00,2013-03-01 09:57:00,
2013-03-01 04:59:00,34.7,30.1,29.50,NE,46,0.0,0.0,83,0.00,,---,0.00,VWS V14.00,2013-03-01 09:59:00,
2013-03-01 05:00:00,34.7,30.1,29.50,NE,46,0.0,0.0,83,0.00,,---,0.00,VWS V14.00,2013-03-01 10:00:00,
2013-03-01 05:02:00,34.7,30.1,29.50,NE,46,0.0,0.0,83,0.00,,---,0.00,VWS V14.00,2013-03-01 10:02:00,
2013-03-01 05:04:00,34.7,30.1,29.50,NE,46,0.0,0.0,83,0.00,,---,0.00,VWS V14.00,2013-03-01 10:04:00,
2013-03-01 05:05:00,34.7,30.4,29.50,NE,46,0.0,0.0,84,0.00,,---,0.00,VWS V14.00,2013-03-01 10:05:00,
2013-03-01 05:07:00,34.6,30.3,29.50,NE,46,0.0,0.0,84,0.00,,---,0.00,VWS V14.00,2013-03-01 10:07:00,
2013-03-01 05:09:00,34.6,30.3,29.50,NE,46,0.0,0.0,84,0.00,,---,0.00,VWS V14.00,2013-03-01 10:09:00,
2013-03-01 05:10:00,34.6,30.3,29.50,NE,46,0.0,0.0,84,0.00,,---,0.00,VWS V14.00,2013-03-01 10:10:00,
2013-03-01 05:12:00,34.6,30.3,29.50,NE,46,0.0,0.0,84,0.00,,---,0.00,VWS V14.00,2013-03-01 10:12:00,
2013-03-01 05:15:00,34.6,30.3,29.50,NE,46,0.0,0.0,84,0.00,,---,0.00,VWS V14.00,2013-03-01 10:15:00,
2013-03-01 05:16:00,34.6,30.3,29.50,NE,46,0.0,0.0,84,0.00,,---,0.00,VWS V14.00,2013-03-01 10:16:00,
2013-03-01 05:17:00,34.6,30.3,29.50,NE,46,0.0,0.0,84,0.00,,---,0.00,VWS V14.00,2013-03-01 10:17:00,
2013-03-01 05:20:00,34.6,30.3,29.50,NE,46,0.0,0.0,84,0.00,,---,0.00,VWS V14.00,2013-03-01 10:20:00,
2013-03-01 05:21:00,34.6,30.3,29.50,NE,46,0.0,0.0,84,0.00,,---,0.00,VWS V14.00,2013-03-01 10:21:00,
2013-03-01 05:22:00,34.6,30.3,29.50,NE,46,0.0,0.0,84,0.00,,---,0.00,VWS V14.00,2013-03-01 10:22:00,
2013-03-01 05:25:00,34.6,30.3,29.50,NE,46,0.0,0.0,84,0.00,,---,0.00,VWS V14.00,2013-03-01 10:25:00,
2013-03-01 05:26:00,34.6,30.3,29.50,NE,46,0.0,0.0,84,0.00,,---,0.00,VWS V14.00,2013-03-01 10:26:00,
2013-03-01 05:27:00,34.6,30.3,29.50,NE,46,0.0,0.0,84,0.00,,---,0.00,VWS V14.00,2013-03-01 10:27:00,
2013-03-01 05:30:00,34.6,30.3,29.50,NE,46,0.0,0.0,84,0.00,,---,0.00,VWS V14.00,2013-03-01 10:30:00,
2013-03-01 05:31:00,34.6,30.3,29.50,NE,46,0.0,0.0,84,0.00,,---,0.00,VWS V14.00,2013-03-01 10:31:00,
2013-03-01 05:32:00,34.6,30.3,29.50,NE,46,0.0,0.0,84,0.00,,---,0.00,VWS V14.00,2013-03-01 10:32:00,
2013-03-01 05:35:00,34.4,30.1,29.50,NE,46,0.0,0.0,84,0.00,,---,0.00,VWS V14.00,2013-03-01 10:35:00,
2013-03-01 05:36:00,34.4,30.4,29.50,NE,46,0.0,0.0,85,0.00,,---,0.00,VWS V14.00,2013-03-01 10:36:00,
2013-03-01 05:38:00,34.4,30.4,29.50,NE,46,0.0,0.0,85,0.00,,---,0.00,VWS V14.00,2013-03-01 10:38:00,
2013-03-01 05:40:00,34.4,30.4,29.50,NE,46,0.0,0.0,85,0.00,,---,0.00,VWS V14.00,2013-03-01 10:40:00,
2013-03-01 05:41:00,34.3,30.3,29.50,NE,46,0.0,0.0,85,0.00,,---,0.00,VWS V14.00,2013-03-01 10:41:00,
2013-03-01 05:45:00,34.3,30.3,29.51,NE,46,0.0,0.0,85,0.00,,---,0.00,VWS V14.00,2013-03-01 10:45:00,
2013-03-01 05:46:00,34.1,30.1,29.51,NE,46,0.0,0.0,85,0.00,,---,0.00,VWS V14.00,2013-03-01 10:46:00,
2013-03-01 05:50:00,34.1,30.1,29.51,NE,46,0.0,0.0,85,0.00,,---,0.00,VWS V14.00,2013-03-01 10:50:00,
2013-03-01 05:51:00,34.0,30.0,29.51,NE,46,0.0,0.0,85,0.00,,---,0.00,VWS V14.00,2013-03-01 10:51:00,
2013-03-01 05:55:00,33.8,29.8,29.51,NE,46,0.0,0.0,85,0.00,,---,0.00,VWS V14.00,2013-03-01 10:55:00,
2013-03-01 05:56:00,33.8,29.8,29.51,NE,46,0.0,0.0,85,0.00,,---,0.00,VWS V14.00,2013-03-01 10:56:00,
2013-03-01 06:00:00,33.7,29.7,29.51,NE,46,0.0,0.0,85,0.00,,---,0.00,VWS V14.00,2013-03-01 11:00:00,
2013-03-01 06:01:00,33.5,29.5,29.51,NE,46,0.0,0.0,85,0.00,,---,0.00,VWS V14.00,2013-03-01 11:01:00,
2013-03-01 06:05:00,33.4,29.4,29.51,NE,46,0.0,0.0,85,0.00,,---,0.00,VWS V14.00,2013-03-01 11:05:00,
2013-03-01 06:06:00,33.4,29.4,29.51,NE,46,0.0,0.0,85,0.00,,---,0.00,VWS V14.00,2013-03-01 11:06:00,
2013-03-01 06:07:00,33.4,29.4,29.51,NE,46,0.0,0.0,85,0.00,,---,0.00,VWS V14.00,2013-03-01 11:07:00,
2013-03-01 06:10:00,33.1,29.4,29.51,NE,46,0.0,0.0,86,0.00,,---,0.00,VWS V14.00,2013-03-01 11:10:00,
2013-03-01 06:11:00,33.1,29.4,29.51,NE,46,0.0,0.0,86,0.00,,---,0.00,VWS V14.00,2013-03-01 11:11:00,
2013-03-01 06:12:00,33.1,29.4,29.51,NE,46,0.0,0.0,86,0.00,,---,0.00,VWS V14.00,2013-03-01 11:12:00,
2013-03-01 06:15:00,32.9,29.2,29.51,NE,46,0.0,0.0,86,0.00,,---,0.00,VWS V14.00,2013-03-01 11:15:00,
2013-03-01 06:16:00,32.9,29.2,29.51,NE,46,0.0,0.0,86,0.00,,---,0.00,VWS V14.00,2013-03-01 11:16:00,
2013-03-01 06:17:00,32.9,29.2,29.51,NE,46,0.0,0.0,86,0.00,,---,0.00,VWS V14.00,2013-03-01 11:17:00,
2013-03-01 06:20:00,32.7,29.0,29.51,NE,46,0.0,0.0,86,0.00,,---,0.00,VWS V14.00,2013-03-01 11:20:00,
2013-03-01 06:21:00,32.7,29.0,29.51,NE,46,0.0,0.0,86,0.00,,---,0.00,VWS V14.00,2013-03-01 11:21:00,
2013-03-01 06:22:00,32.7,29.0,29.51,NE,46,0.0,0.0,86,0.00,,---,0.00,VWS V14.00,2013-03-01 11:22:00,
2013-03-01 06:25:00,32.5,28.8,29.51,NE,46,0.0,0.0,86,0.00,,---,0.00,VWS V14.00,2013-03-01 11:25:00,
2013-03-01 06:26:00,32.5,28.8,29.51,NE,46,0.0,0.0,86,0.00,,---,0.00,VWS V14.00,2013-03-01 11:26:00,
2013-03-01 06:27:00,32.4,28.7,29.51,NE,46,0.0,0.0,86,0.00,,---,0.00,VWS V14.00,2013-03-01 11:27:00,
2013-03-01 06:30:00,32.2,28.5,29.51,NE,46,0.0,0.0,86,0.00,,---,0.00,VWS V14.00,2013-03-01 11:30:00,
2013-03-01 06:31:00,32.2,28.5,29.51,NE,46,0.0,0.0,86,0.00,,---,0.00,VWS V14.00,2013-03-01 11:31:00,
2013-03-01 06:32:00,32.2,28.8,29.51,NE,46,0.0,0.0,87,0.00,,---,0.00,VWS V14.00,2013-03-01 11:32:00,
2013-03-01 06:36:00,31.9,28.5,29.51,NE,46,0.0,0.0,87,0.00,,---,0.00,VWS V14.00,2013-03-01 11:36:00,
2013-03-01 06:37:00,31.9,28.5,29.51,NE,46,0.0,0.0,87,0.00,,---,0.00,VWS V14.00,2013-03-01 11:37:00,
2013-03-01 06:41:00,31.8,28.4,29.51,NE,46,0.0,0.0,87,0.00,,---,0.00,VWS V14.00,2013-03-01 11:41:00,
2013-03-01 06:42:00,31.8,28.4,29.51,NE,46,0.0,0.0,87,0.00,,---,0.00,VWS V14.00,2013-03-01 11:42:00,
2013-03-01 06:45:00,33.4,31.1,29.54,WSW,243,0.0,3.0,91,0.00,,---,0.00,VWS V14.00,2013-03-01 11:45:00,
2013-03-01 06:46:00,31.6,28.2,29.51,NE,46,0.0,0.0,87,0.00,,---,0.00,VWS V14.00,2013-03-01 11:46:00,
2013-03-01 06:47:00,31.6,28.2,29.51,NE,46,0.0,0.0,87,0.00,,---,0.00,VWS V14.00,2013-03-01 11:47:00,
2013-03-01 06:51:00,31.5,28.4,29.51,NE,46,0.0,0.0,88,0.00,,---,0.00,VWS V14.00,2013-03-01 11:51:00,
2013-03-01 06:52:00,31.3,28.2,29.51,NE,46,0.0,0.0,88,0.00,,---,0.00,VWS V14.00,2013-03-01 11:52:00,
2013-03-01 06:56:00,31.3,28.2,29.51,NE,46,0.0,0.0,88,0.00,,---,0.00,VWS V14.00,2013-03-01 11:56:00,
2013-03-01 06:57:00,31.3,28.2,29.51,NE,46,0.0,0.0,88,0.00,,---,0.00,VWS V14.00,2013-03-01 11:57:00,
2013-03-01 06:58:00,31.3,28.2,29.51,NE,46,0.0,0.0,88,0.00,,---,0.00,VWS V14.00,2013-03-01 11:58:00,
2013-03-01 07:00:00,34.7,31.8,29.55,NNW,330,3.0,5.0,89,0.00,,---,0.00,VWS V14.00,2013-03-01 12:00:00,
2013-03-01 07:01:00,31.3,28.2,29.52,NE,46,0.0,0.0,88,0.00,,---,0.00,VWS V14.00,2013-03-01 12:01:00,
2013-03-01 07:02:00,31.3,28.2,29.52,NE,46,0.0,0.0,88,0.00,,---,0.00,VWS V14.00,2013-03-01 12:02:00,
2013-03-01 07:03:00,31.3,28.2,29.52,NE,46,0.0,0.0,88,0.00,,---,0.00,VWS V14.00,2013-03-01 12:03:00,
2013-03-01 07:06:00,31.3,28.4,29.52,NE,46,0.0,0.0,89,0.00,,---,0.00,VWS V14.00,2013-03-01 12:06:00,
2013-03-01 07:07:00,31.3,28.4,29.52,NE,46,0.0,0.0,89,0.00,,---,0.00,VWS V14.00,2013-03-01 12:07:00,
2013-03-01 07:08:00,31.3,28.4,29.52,NE,46,0.0,0.0,89,0.00,,---,0.00,VWS V14.00,2013-03-01 12:08:00,
2013-03-01 07:11:00,31.3,28.4,29.52,NE,46,0.0,0.0,89,0.00,,---,0.00,VWS V14.00,2013-03-01 12:11:00,
2013-03-01 07:12:00,31.3,28.4,29.52,NE,46,0.0,0.0,89,0.00,,---,0.00,VWS V14.00,2013-03-01 12:12:00,
2013-03-01 07:13:00,31.3,28.4,29.53,NE,46,0.0,0.0,89,0.00,,---,0.00,VWS V14.00,2013-03-01 12:13:00,
2013-03-01 07:15:00,35.5,30.6,29.55,NNW,347,2.0,7.0,82,0.00,,---,0.00,VWS V14.00,2013-03-01 12:15:00,
2013-03-01 07:17:00,31.5,28.6,29.53,NE,46,0.0,0.0,89,0.00,,---,0.00,VWS V14.00,2013-03-01 12:17:00,
2013-03-01 07:18:00,31.6,28.7,29.53,NE,46,0.0,0.0,89,0.00,,---,0.00,VWS V14.00,2013-03-01 12:18:00,
2013-03-01 07:22:00,31.8,29.2,29.53,NE,46,0.0,0.0,90,0.00,,---,0.00,VWS V14.00,2013-03-01 12:22:00,
2013-03-01 07:23:00,31.9,29.3,29.53,NE,46,0.0,0.0,90,0.00,,---,0.00,VWS V14.00,2013-03-01 12:23:00,
2013-03-01 07:27:00,32.1,29.5,29.53,NE,46,0.0,0.0,90,0.00,,---,0.00,VWS V14.00,2013-03-01 12:27:00,
2013-03-01 07:28:00,32.2,29.6,29.53,NE,46,0.0,0.0,90,0.00,,---,0.00,VWS V14.00,2013-03-01 12:28:00,
2013-03-01 07:29:00,32.2,29.6,29.53,NE,46,0.0,0.0,90,0.00,,---,0.00,VWS V14.00,2013-03-01 12:29:00,
2013-03-01 07:30:00,35.9,30.0,29.55,NNW,344,2.0,3.0,79,0.00,,---,0.00,VWS V14.00,2013-03-01 12:30:00,
2013-03-01 07:32:00,32.4,29.8,29.53,NE,40,0.0,2.0,90,0.00,,---,0.00,VWS V14.00,2013-03-01 12:32:00,
2013-03-01 07:34:00,32.7,30.1,29.53,NE,39,0.0,2.0,90,0.00,,---,0.00,VWS V14.00,2013-03-01 12:34:00,
2013-03-01 07:37:00,32.8,30.5,29.53,NE,39,0.0,2.0,91,0.00,,---,0.00,VWS V14.00,2013-03-01 12:37:00,
2013-03-01 07:39:00,32.9,30.3,29.53,NE,39,0.0,2.0,90,0.00,,---,0.00,VWS V14.00,2013-03-01 12:39:00,
2013-03-01 07:42:00,33.2,30.9,29.53,WSW,243,0.0,3.0,91,0.00,,---,0.00,VWS V14.00,2013-03-01 12:42:00,
2013-03-01 07:44:00,33.4,31.1,29.54,WSW,243,0.0,3.0,91,0.00,,---,0.00,VWS V14.00,2013-03-01 12:44:00,
2013-03-01 07:45:00,36.3,29.8,29.55,NNE,30,0.0,4.0,77,0.00,,---,0.00,VWS V14.00,2013-03-01 12:45:00,
2013-03-01 07:47:00,33.7,31.4,29.54,WSW,243,0.0,1.0,91,0.00,,---,0.00,VWS V14.00,2013-03-01 12:47:00,
2013-03-01 07:49:00,33.8,31.2,29.54,WSW,243,1.0,1.0,90,0.00,,---,0.00,VWS V14.00,2013-03-01 12:49:00,
2013-03-01 07:52:00,34.1,31.5,29.54,West,278,0.0,4.0,90,0.00,,---,0.00,VWS V14.00,2013-03-01 12:52:00,
2013-03-01 07:53:00,34.1,31.5,29.54,WNW,297,2.0,4.0,90,0.00,,---,0.00,VWS V14.00,2013-03-01 12:53:00,
2013-03-01 07:54:00,34.3,31.7,29.54,NW,304,1.0,4.0,90,0.00,,---,0.00,VWS V14.00,2013-03-01 12:54:00,
2013-03-01 07:57:00,34.4,31.5,29.54,NNW,330,1.0,5.0,89,0.00,,---,0.00,VWS V14.00,2013-03-01 12:57:00,
2013-03-01 07:58:00,34.6,31.7,29.54,NNW,330,1.0,5.0,89,0.00,,---,0.00,VWS V14.00,2013-03-01 12:58:00,
2013-03-01 07:59:00,34.6,31.7,29.55,NNW,330,0.0,5.0,89,0.00,,---,0.00,VWS V14.00,2013-03-01 12:59:00,
2013-03-01 08:00:00,34.7,31.5,29.55,NNW,330,3.0,5.0,88,0.00,,---,0.00,VWS V14.00,2013-03-01 13:00:00,
2013-03-01 08:02:00,34.9,31.4,29.55,NW,311,4.0,6.0,87,0.00,,---,0.00,VWS V14.00,2013-03-01 13:02:00,
2013-03-01 08:03:00,34.9,31.4,29.55,NNW,335,6.0,6.0,87,0.00,,---,0.00,VWS V14.00,2013-03-01 13:03:00,
2013-03-01 08:04:00,35.0,31.2,29.55,NNW,336,4.0,7.0,86,0.00,,---,0.00,VWS V14.00,2013-03-01 13:04:00,
2013-03-01 08:05:00,35.0,31.0,29.55,NNW,345,3.0,7.0,85,0.00,,---,0.00,VWS V14.00,2013-03-01 13:05:00,
2013-03-01 08:07:00,35.2,30.9,29.55,NNW,347,2.0,7.0,84,0.00,,---,0.00,VWS V14.00,2013-03-01 13:07:00,
2013-03-01 08:08:00,35.2,30.9,29.55,NNW,347,0.0,7.0,84,0.00,,---,0.00,VWS V14.00,2013-03-01 13:08:00,
2013-03-01 08:09:00,35.3,31.0,29.55,NNW,347,0.0,7.0,84,0.00,,---,0.00,VWS V14.00,2013-03-01 13:09:00,
2013-03-01 08:10:00,35.3,31.0,29.55,NNW,347,0.0,7.0,84,0.00,,---,0.00,VWS V14.00,2013-03-01 13:10:00,
2013-03-01 08:13:00,35.5,30.9,29.55,NNW,348,2.0,7.0,83,0.00,,---,0.00,VWS V14.00,2013-03-01 13:13:00,
2013-03-01 08:14:00,35.5,30.6,29.55,NNW,347,1.0,2.0,82,0.00,,---,0.00,VWS V14.00,2013-03-01 13:14:00,
2013-03-01 08:15:00,35.5,30.6,29.55,NNW,328,0.0,3.0,82,0.00,,---,0.00,VWS V14.00,2013-03-01 13:15:00,
2013-03-01 08:18:00,35.6,30.7,29.55,NNW,331,1.0,3.0,82,0.00,,---,0.00,VWS V14.00,2013-03-01 13:18:00,
2013-03-01 08:19:00,35.6,30.4,29.55,NNE,21,1.0,3.0,81,0.00,,---,0.00,VWS V14.00,2013-03-01 13:19:00,
2013-03-01 08:20:00,35.6,30.4,29.55,NNE,21,0.0,3.0,81,0.00,,---,0.00,VWS V14.00,2013-03-01 13:20:00,
2013-03-01 08:23:00,35.8,30.5,29.55,North,11,0.0,3.0,81,0.00,,---,0.00,VWS V14.00,2013-03-01 13:23:00,
2013-03-01 08:25:00,35.8,30.2,29.55,North,3,0.0,3.0,80,0.00,,---,0.00,VWS V14.00,2013-03-01 13:25:00,
2013-03-01 08:28:00,35.9,30.3,29.55,NNW,345,2.0,3.0,80,0.00,,---,0.00,VWS V14.00,2013-03-01 13:28:00,
2013-03-01 08:30:00,35.9,30.0,29.55,NNW,344,0.0,2.0,79,0.00,,---,0.00,VWS V14.00,2013-03-01 13:30:00,
2013-03-01 08:33:00,36.0,29.8,29.55,North,352,0.0,3.0,78,0.00,,---,0.00,VWS V14.00,2013-03-01 13:33:00,
2013-03-01 08:34:00,36.0,29.8,29.55,NNW,343,3.0,4.0,78,0.00,,---,0.00,VWS V14.00,2013-03-01 13:34:00,
2013-03-01 08:35:00,36.0,29.8,29.55,NNW,343,0.0,4.0,78,0.00,,---,0.00,VWS V14.00,2013-03-01 13:35:00,
2013-03-01 08:38:00,36.2,30.0,29.55,NNE,28,0.0,4.0,78,0.00,,---,0.00,VWS V14.00,2013-03-01 13:38:00,
2013-03-01 08:39:00,36.2,30.0,29.55,NNE,28,1.0,4.0,78,0.00,,---,0.00,VWS V14.00,2013-03-01 13:39:00,
2013-03-01 08:40:00,36.2,29.7,29.55,NNE,28,0.0,4.0,77,0.00,,---,0.00,VWS V14.00,2013-03-01 13:40:00,
2013-03-01 08:43:00,36.3,29.8,29.55,NNE,28,0.0,4.0,77,0.00,,---,0.00,VWS V14.00,2013-03-01 13:43:00,
2013-03-01 08:44:00,36.3,29.8,29.55,NNE,28,0.0,4.0,77,0.00,,---,0.00,VWS V14.00,2013-03-01 13:44:00,
2013-03-01 08:45:00,36.3,29.8,29.55,NNE,30,0.0,0.0,77,0.00,,---,0.00,VWS V14.00,2013-03-01 13:45:00,
2013-03-01 08:48:00,36.5,30.0,29.55,North,357,1.0,3.0,77,0.00,,---,0.00,VWS V14.00,2013-03-01 13:48:00,
2013-03-01 08:49:00,36.5,29.7,29.55,North,358,0.0,3.0,76,0.00,,---,0.00,VWS V14.00,2013-03-01 13:49:00,
2013-03-01 08:50:00,36.5,29.7,29.55,North,11,0.0,3.0,76,0.00,,---,0.00,VWS V14.00,2013-03-01 13:50:00,
2013-03-01 08:51:00,36.6,29.8,29.55,North,0,1.0,3.0,76,0.00,,---,0.00,VWS V14.00,2013-03-01 13:51:00,
2013-03-01 08:53:00,36.6,29.4,29.55,ENE,63,1.0,3.0,75,0.00,,---,0.00,VWS V14.00,2013-03-01 13:53:00,
2013-03-01 08:54:00,36.6,29.4,29.55,NW,326,1.0,4.0,75,0.00,,---,0.00,VWS V14.00,2013-03-01 13:54:00,
2013-03-01 08:55:00,36.6,29.4,29.55,NNW,337,0.0,4.0,75,0.00,,---,0.00,VWS V14.00,2013-03-01 13:55:00,
2013-03-01 08:56:00,36.6,29.4,29.55,NNW,337,0.0,4.0,75,0.00,,---,0.00,VWS V14.00,2013-03-01 13:56:00,
2013-03-01 08:58:00,36.8,29.3,29.55,NNE,13,0.0,4.0,74,0.00,,---,0.00,VWS V14.00,2013-03-01 13:58:00,
2013-03-01 08:59:00,36.8,29.3,29.55,NNE,13,0.0,4.0,74,0.00,,---,0.00,VWS V14.00,2013-03-01 13:59:00,
2013-03-01 09:00:00,36.8,29.3,29.55,NNE,13,0.0,0.0,74,0.00,,---,0.00,VWS V14.00,2013-03-01 14:00:00,
2013-03-01 09:01:00,36.8,29.3,29.55,NNE,13,0.0,0.0,74,0.00,,---,0.00,VWS V14.00,2013-03-01 14:01:00,
2013-03-01 09:03:00,36.9,29.4,29.55,NNE,13,1.0,1.0,74,0.00,,---,0.00,VWS V14.00,2013-03-01 14:03:00,
2013-03-01 09:04:00,36.9,29.4,29.55,East,88,0.0,3.0,74,0.00,,---,0.00,VWS V14.00,2013-03-01 14:04:00,
2013-03-01 09:05:00,37.0,29.5,29.55,ENE,77,0.0,3.0,74,0.00,,---,0.00,VWS V14.00,2013-03-01 14:05:00,
2013-03-01 09:06:00,37.0,29.2,29.55,North,9,1.0,3.0,73,0.00,,---,0.00,VWS V14.00,2013-03-01 14:06:00,
2013-03-01 09:08:00,37.0,29.2,29.55,North,10,0.0,3.0,73,0.00,,---,0.00,VWS V14.00,2013-03-01 14:08:00,
2013-03-01 09:09:00,37.0,29.2,29.55,North,356,0.0,3.0,73,0.00,,---,0.00,VWS V14.00,2013-03-01 14:09:00,
2013-03-01 09:10:00,37.2,29.4,29.55,North,356,0.0,3.0,73,0.00,,---,0.00,VWS V14.00,2013-03-01 14:10:00,
2013-03-01 09:12:00,37.2,29.4,29.55,North,356,2.0,3.0,73,0.00,,---,0.00,VWS V14.00,2013-03-01 14:12:00,
2013-03-01 09:13:00,37.2,29.4,29.56,North,356,1.0,3.0,73,0.00,,---,0.00,VWS V14.00,2013-03-01 14:13:00,
2013-03-01 09:15:00,37.3,29.1,29.56,North,356,0.0,0.0,72,0.00,,---,0.00,VWS V14.00,2013-03-01 14:15:00,
2013-03-01 09:17:00,37.3,29.1,29.56,North,356,0.0,0.0,72,0.00,,---,0.00,VWS V14.00,2013-03-01 14:17:00,
2013-03-01 09:18:00,37.3,29.1,29.56,NNW,335,0.0,3.0,72,0.00,,---,0.00,VWS V14.00,2013-03-01 14:18:00,
2013-03-01 09:20:00,37.5,29.3,29.56,NNW,335,0.0,3.0,72,0.00,,---,0.00,VWS V14.00,2013-03-01 14:20:00,
2013-03-01 09:21:00,37.5,29.3,29.56,NNW,335,0.0,3.0,72,0.00,,---,0.00,VWS V14.00,2013-03-01 14:21:00,
2013-03-01 09:22:00,37.5,29.3,29.56,NNW,335,0.0,3.0,72,0.00,,---,0.00,VWS V14.00,2013-03-01 14:22:00,
2013-03-01 09:23:00,37.6,29.4,29.56,NNW,335,0.0,3.0,72,0.00,,---,0.00,VWS V14.00,2013-03-01 14:23:00,
2013-03-01 09:25:00,37.8,29.3,29.56,NNW,335,0.0,3.0,71,0.00,,---,0.00,VWS V14.00,2013-03-01 14:25:00,
2013-03-01 09:26:00,37.8,29.3,29.56,NNW,335,0.0,3.0,71,0.00,,---,0.00,VWS V14.00,2013-03-01 14:26:00,
2013-03-01 09:27:00,37.8,29.3,29.56,NNW,334,0.0,3.0,71,0.00,,---,0.00,VWS V14.00,2013-03-01 14:27:00,
2013-03-01 09:29:00,37.8,28.9,29.56,NNW,334,0.0,3.0,70,0.00,,---,0.00,VWS V14.00,2013-03-01 14:29:00,
2013-03-01 09:30:00,37.9,29.0,29.56,North,1,0.0,4.0,70,0.00,,---,0.00,VWS V14.00,2013-03-01 14:30:00,
2013-03-01 09:31:00,37.9,29.0,29.56,North,1,2.0,4.0,70,0.00,,---,0.00,VWS V14.00,2013-03-01 14:31:00,
2013-03-01 09:32:00,37.9,29.0,29.56,North,0,0.0,4.0,70,0.00,,---,0.00,VWS V14.00,2013-03-01 14:32:00,
2013-03-01 09:33:00,37.9,28.6,29.56,North,359,0.0,4.0,69,0.00,,---,0.00,VWS V14.00,2013-03-01 14:33:00,
2013-03-01 09:35:00,38.0,28.8,29.56,NE,44,0.0,4.0,69,0.00,,---,0.00,VWS V14.00,2013-03-01 14:35:00,
2013-03-01 09:36:00,38.0,28.8,29.56,NE,46,0.0,4.0,69,0.00,,---,0.00,VWS V14.00,2013-03-01 14:36:00,
2013-03-01 09:37:00,38.2,28.9,29.56,NE,46,0.0,4.0,69,0.00,,---,0.00,VWS V14.00,2013-03-01 14:37:00,
2013-03-01 09:38:00,38.2,28.6,29.56,NE,42,0.0,4.0,68,0.00,,---,0.00,VWS V14.00,2013-03-01 14:38:00,
2013-03-01 09:41:00,38.2,28.6,29.56,NNW,333,1.0,5.0,68,0.00,,---,0.00,VWS V14.00,2013-03-01 14:41:00,
2013-03-01 09:42:00,38.3,28.7,29.56,North,352,1.0,6.0,68,0.00,,---,0.00,VWS V14.00,2013-03-01 14:42:00,
2013-03-01 09:44:00,38.3,28.7,29.56,NNW,331,1.0,6.0,68,0.00,,---,0.00,VWS V14.00,2013-03-01 14:44:00,
2013-03-01 09:45:00,39.5,27.6,29.56,NNE,28,2.0,10.0,62,0.00,,---,0.00,VWS V14.00,2013-03-01 14:45:00,
2013-03-01 09:46:00,38.3,28.3,29.56,NNW,331,0.0,1.0,67,0.00,,---,0.00,VWS V14.00,2013-03-01 14:46:00,
2013-03-01 09:47:00,38.3,28.3,29.56,NNW,331,0.0,1.0,67,0.00,,---,0.00,VWS V14.00,2013-03-01 14:47:00,
2013-03-01 09:49:00,38.5,28.5,29.56,NNW,328,0.0,1.0,67,0.00,,---,0.00,VWS V14.00,2013-03-01 14:49:00,
2013-03-01 09:51:00,38.5,28.5,29.56,NE,39,0.0,5.0,67,0.00,,---,0.00,VWS V14.00,2013-03-01 14:51:00,
2013-03-01 09:52:00,38.6,28.6,29.56,NNW,331,3.0,5.0,67,0.00,,---,0.00,VWS V14.00,2013-03-01 14:52:00,
2013-03-01 09:54:00,38.6,28.2,29.56,NNW,331,1.0,5.0,66,0.00,,---,0.00,VWS V14.00,2013-03-01 14:54:00,
2013-03-01 09:56:00,38.6,28.2,29.56,NNW,334,0.0,5.0,66,0.00,,---,0.00,VWS V14.00,2013-03-01 14:56:00,
2013-03-01 09:58:00,38.6,28.2,29.56,NNW,334,0.0,5.0,66,0.00,,---,0.00,VWS V14.00,2013-03-01 14:58:00,
2013-03-01 09:59:00,38.6,28.2,29.56,NNW,334,0.0,5.0,66,0.00,,---,0.00,VWS V14.00,2013-03-01 14:59:00,
2013-03-01 10:00:00,39.6,27.3,29.56,North,354,2.0,7.0,61,0.00,,---,0.00,VWS V14.00,2013-03-01 15:00:00,
2013-03-01 10:01:00,38.8,28.1,29.56,North,358,0.0,7.0,65,0.00,,---,0.00,VWS V14.00,2013-03-01 15:01:00,
2013-03-01 10:03:00,38.8,28.1,29.56,NNE,30,0.0,7.0,65,0.00,,---,0.00,VWS V14.00,2013-03-01 15:03:00,
2013-03-01 10:04:00,38.8,27.7,29.56,NNW,340,5.0,10.0,64,0.00,,---,0.00,VWS V14.00,2013-03-01 15:04:00,
2013-03-01 10:06:00,38.8,27.7,29.56,NE,42,2.0,10.0,64,0.00,,---,0.00,VWS V14.00,2013-03-01 15:06:00,
2013-03-01 10:08:00,38.8,28.1,29.56,North,359,0.0,10.0,65,0.00,,---,0.00,VWS V14.00,2013-03-01 15:08:00,
2013-03-01 10:09:00,38.8,28.1,29.56,North,359,1.0,10.0,65,0.00,,---,0.00,VWS V14.00,2013-03-01 15:09:00,
2013-03-01 10:11:00,38.9,28.1,29.56,North,359,0.0,10.0,65,0.00,,---,0.00,VWS V14.00,2013-03-01 15:11:00,
2013-03-01 10:13:00,39.1,28.3,29.56,North,359,0.0,10.0,65,0.00,,---,0.00,VWS V14.00,2013-03-01 15:13:00,
2013-03-01 10:14:00,39.2,28.4,29.56,North,350,1.0,3.0,65,0.00,,---,0.00,VWS V14.00,2013-03-01 15:14:00,
2013-03-01 10:15:00,39.5,26.8,29.56,North,1,3.0,7.0,60,0.00,,---,0.00,VWS V14.00,2013-03-01 15:15:00,
2013-03-01 10:16:00,39.2,28.1,29.56,NNW,330,2.0,4.0,64,0.00,,---,0.00,VWS V14.00,2013-03-01 15:16:00,
2013-03-01 10:17:00,39.2,28.1,29.56,NNW,342,3.0,5.0,64,0.00,,---,0.00,VWS V14.00,2013-03-01 15:17:00,
2013-03-01 10:18:00,39.2,28.1,29.56,NNW,327,4.0,5.0,64,0.00,,---,0.00,VWS V14.00,2013-03-01 15:18:00,
2013-03-01 10:19:00,39.2,28.1,29.56,NNW,330,0.0,5.0,64,0.00,,---,0.00,VWS V14.00,2013-03-01 15:19:00,
2013-03-01 10:21:00,39.3,28.2,29.56,North,349,1.0,7.0,64,0.00,,---,0.00,VWS V14.00,2013-03-01 15:21:00,
2013-03-01 10:22:00,39.3,28.2,29.56,NNE,17,4.0,7.0,64,0.00,,---,0.00,VWS V14.00,2013-03-01 15:22:00,
2013-03-01 10:23:00,39.2,27.7,29.56,NNE,13,2.0,7.0,63,0.00,,---,0.00,VWS V14.00,2013-03-01 15:23:00,
2013-03-01 10:25:00,39.3,28.2,29.56,ENE,68,0.0,7.0,64,0.00,,---,0.00,VWS V14.00,2013-03-01 15:25:00,
2013-03-01 10:27:00,39.3,28.2,29.56,NNW,347,2.0,7.0,64,0.00,,---,0.00,VWS V14.00,2013-03-01 15:27:00,
2013-03-01 10:28:00,39.3,27.8,29.56,NNW,332,5.0,7.0,63,0.00,,---,0.00,VWS V14.00,2013-03-01 15:28:00,
2013-03-01 10:30:00,39.3,27.4,29.56,NNW,348,3.0,4.0,62,0.00,,---,0.00,VWS V14.00,2013-03-01 15:30:00,
2013-03-01 10:32:00,39.5,28.0,29.56,NNW,348,0.0,4.0,63,0.00,,---,0.00,VWS V14.00,2013-03-01 15:32:00,
2013-03-01 10:33:00,39.5,28.0,29.56,NNW,345,0.0,4.0,63,0.00,,---,0.00,VWS V14.00,2013-03-01 15:33:00,
2013-03-01 10:35:00,39.5,28.0,29.56,North,358,3.0,4.0,63,0.00,,---,0.00,VWS V14.00,2013-03-01 15:35:00,
2013-03-01 10:37:00,39.5,27.6,29.56,NNW,328,4.0,10.0,62,0.00,,---,0.00,VWS V14.00,2013-03-01 15:37:00,
2013-03-01 10:38:00,39.5,27.6,29.56,NNW,333,2.0,10.0,62,0.00,,---,0.00,VWS V14.00,2013-03-01 15:38:00,
2013-03-01 10:40:00,39.5,27.6,29.56,NW,313,3.0,10.0,62,0.00,,---,0.00,VWS V14.00,2013-03-01 15:40:00,
2013-03-01 10:42:00,39.5,27.6,29.56,North,349,3.0,10.0,62,0.00,,---,0.00,VWS V14.00,2013-03-01 15:42:00,
2013-03-01 10:44:00,39.5,27.6,29.56,NE,48,1.0,10.0,62,0.00,,---,0.00,VWS V14.00,2013-03-01 15:44:00,
2013-03-01 10:45:00,39.5,27.6,29.56,NNW,335,2.0,4.0,62,0.00,,---,0.00,VWS V14.00,2013-03-01 15:45:00,
2013-03-01 10:47:00,39.5,27.6,29.56,North,0,2.0,4.0,62,0.00,,---,0.00,VWS V14.00,2013-03-01 15:47:00,
2013-03-01 10:49:00,39.5,27.6,29.56,NNW,328,2.0,4.0,62,0.00,,---,0.00,VWS V14.00,2013-03-01 15:49:00,
2013-03-01 10:50:00,39.6,27.3,29.56,NNW,342,2.0,4.0,61,0.00,,---,0.00,VWS V14.00,2013-03-01 15:50:00,
2013-03-01 10:52:00,39.6,27.7,29.56,NNW,341,2.0,5.0,62,0.00,,---,0.00,VWS V14.00,2013-03-01 15:52:00,
2013-03-01 10:54:00,39.6,27.7,29.56,NNE,29,2.0,5.0,62,0.00,,---,0.00,VWS V14.00,2013-03-01 15:54:00,
2013-03-01 10:55:00,39.6,27.3,29.56,North,11,1.0,7.0,61,0.00,,---,0.00,VWS V14.00,2013-03-01 15:55:00,
2013-03-01 10:57:00,39.6,27.3,29.56,North,349,0.0,7.0,61,0.00,,---,0.00,VWS V14.00,2013-03-01 15:57:00,
2013-03-01 10:59:00,39.6,27.3,29.56,NNW,344,0.0,7.0,61,0.00,,---,0.00,VWS V14.00,2013-03-01 15:59:00,
2013-03-01 11:00:00,39.6,26.9,29.56,North,352,3.0,5.0,60,0.00,,---,0.00,VWS V14.00,2013-03-01 16:00:00,
2013-03-01 11:02:00,39.5,26.8,29.56,NNW,335,2.0,7.0,60,0.00,,---,0.00,VWS V14.00,2013-03-01 16:02:00,
2013-03-01 11:04:00,39.5,27.2,29.56,NNW,334,2.0,7.0,61,0.00,,---,0.00,VWS V14.00,2013-03-01 16:04:00,
2013-03-01 11:05:00,39.5,26.8,29.56,North,350,0.0,7.0,60,0.00,,---,0.00,VWS V14.00,2013-03-01 16:05:00,
2013-03-01 11:07:00,39.5,26.8,29.56,NNW,335,3.0,7.0,60,0.00,,---,0.00,VWS V14.00,2013-03-01 16:07:00,
2013-03-01 11:08:00,39.5,27.2,29.56,NNW,335,2.0,7.0,61,0.00,,---,0.00,VWS V14.00,2013-03-01 16:08:00,
2013-03-01 11:09:00,39.5,26.8,29.56,NNW,339,4.0,7.0,60,0.00,,---,0.00,VWS V14.00,2013-03-01 16:09:00,
2013-03-01 11:10:00,39.5,26.8,29.56,NW,320,1.0,7.0,60,0.00,,---,0.00,VWS V14.00,2013-03-01 16:10:00,
2013-03-01 11:12:00,39.5,26.8,29.56,North,353,2.0,7.0,60,0.00,,---,0.00,VWS V14.00,2013-03-01 16:12:00,
2013-03-01 11:13:00,39.5,26.8,29.56,North,6,2.0,7.0,60,0.00,,---,0.00,VWS V14.00,2013-03-01 16:13:00,
2013-03-01 11:14:00,39.5,26.8,29.56,North,6,1.0,7.0,60,0.00,,---,0.00,VWS V14.00,2013-03-01 16:14:00,
2013-03-01 11:15:00,39.5,26.8,29.56,NW,321,5.0,5.0,60,0.00,,---,0.00,VWS V14.00,2013-03-01 16:15:00,
2013-03-01 11:18:00,39.3,26.2,29.56,North,0,1.0,10.0,59,0.00,,---,0.00,VWS V14.00,2013-03-01 16:18:00,
2013-03-01 11:19:00,39.3,26.6,29.56,North,1,3.0,10.0,60,0.00,,---,0.00,VWS V14.00,2013-03-01 16:19:00,
2013-03-01 11:20:00,39.3,26.6,29.56,NNW,346,1.0,10.0,60,0.00,,---,0.00,VWS V14.00,2013-03-01 16:20:00,
2013-03-01 11:23:00,39.3,26.2,29.56,NNW,339,2.0,10.0,59,0.00,,---,0.00,VWS V14.00,2013-03-01 16:23:00,
2013-03-01 11:24:00,39.3,26.2,29.56,NNW,343,2.0,10.0,59,0.00,,---,0.00,VWS V14.00,2013-03-01 16:24:00,
2013-03-01 11:26:00,39.3,26.6,29.56,NNW,328,0.0,10.0,60,0.00,,---,0.00,VWS V14.00,2013-03-01 16:26:00,
2013-03-01 11:28:00,39.5,26.8,29.56,North,6,4.0,10.0,60,0.00,,---,0.00,VWS V14.00,2013-03-01 16:28:00,
2013-03-01 11:29:00,39.5,26.4,29.57,NNW,340,2.0,10.0,59,0.00,,---,0.00,VWS V14.00,2013-03-01 16:29:00,
2013-03-01 11:30:00,39.6,26.5,29.56,NW,323,5.0,7.0,59,0.00,,---,0.00,VWS V14.00,2013-03-01 16:30:00,
2013-03-01 11:31:00,39.5,26.4,29.57,North,352,0.0,7.0,59,0.00,,---,0.00,VWS V14.00,2013-03-01 16:31:00,
2013-03-01 11:33:00,39.5,26.4,29.57,North,1,0.0,7.0,59,0.00,,---,0.00,VWS V14.00,2013-03-01 16:33:00,
2013-03-01 11:34:00,39.5,26.4,29.57,NNW,343,5.0,7.0,59,0.00,,---,0.00,VWS V14.00,2013-03-01 16:34:00,
2013-03-01 11:36:00,39.3,26.2,29.57,North,0,6.0,12.0,59,0.00,,---,0.00,VWS V14.00,2013-03-01 16:36:00,
2013-03-01 11:38:00,39.3,26.2,29.57,NNW,339,2.0,12.0,59,0.00,,---,0.00,VWS V14.00,2013-03-01 16:38:00,
2013-03-01 11:39:00,39.3,26.2,29.57,North,356,0.0,12.0,59,0.00,,---,0.00,VWS V14.00,2013-03-01 16:39:00,
2013-03-01 11:41:00,39.3,26.2,29.57,NNW,331,0.0,12.0,59,0.00,,---,0.00,VWS V14.00,2013-03-01 16:41:00,
2013-03-01 11:43:00,39.3,26.2,29.57,North,359,2.0,12.0,59,0.00,,---,0.00,VWS V14.00,2013-03-01 16:43:00,
2013-03-01 11:45:00,39.3,26.2,29.57,NNW,339,2.0,3.0,59,0.00,,---,0.00,VWS V14.00,2013-03-01 16:45:00,
2013-03-01 11:46:00,39.3,26.2,29.57,NNW,337,1.0,6.0,59,0.00,,---,0.00,VWS V14.00,2013-03-01 16:46:00,
2013-03-01 11:48:00,39.3,26.2,29.57,North,352,2.0,6.0,59,0.00,,---,0.00,VWS V14.00,2013-03-01 16:48:00,
2013-03-01 11:50:00,39.3,26.2,29.57,North,352,2.0,6.0,59,0.00,,---,0.00,VWS V14.00,2013-03-01 16:50:00,
2013-03-01 11:51:00,39.3,26.2,29.57,North,350,1.0,6.0,59,0.00,,---,0.00,VWS V14.00,2013-03-01 16:51:00,
2013-03-01 11:53:00,39.3,26.2,29.57,North,349,2.0,6.0,59,0.00,,---,0.00,VWS V14.00,2013-03-01 16:53:00,
2013-03-01 11:54:00,39.3,26.2,29.57,NNW,340,2.0,6.0,59,0.00,,---,0.00,VWS V14.00,2013-03-01 16:54:00,
2013-03-01 11:55:00,39.3,26.2,29.57,North,349,4.0,6.0,59,0.00,,---,0.00,VWS V14.00,2013-03-01 16:55:00,
2013-03-01 11:56:00,39.5,26.4,29.57,NNW,348,3.0,6.0,59,0.00,,---,0.00,VWS V14.00,2013-03-01 16:56:00,
2013-03-01 11:58:00,39.3,26.2,29.57,North,1,1.0,6.0,59,0.00,,---,0.00,VWS V14.00,2013-03-01 16:58:00,
2013-03-01 11:59:00,39.3,26.2,29.57,NNW,345,2.0,6.0,59,0.00,,---,0.00,VWS V14.00,2013-03-01 16:59:00,
2013-03-01 12:00:00,39.3,26.2,29.57,NNW,336,3.0,4.0,59,0.00,,---,0.00,VWS V14.00,2013-03-01 17:00:00,
2013-03-01 12:01:00,39.3,26.2,29.57,NW,317,5.0,8.0,59,0.00,,---,0.00,VWS V14.00,2013-03-01 17:01:00,
2013-03-01 12:03:00,39.3,26.2,29.57,North,349,1.0,8.0,59,0.00,,---,0.00,VWS V14.00,2013-03-01 17:03:00,
2013-03-01 12:04:00,39.3,26.2,29.57,North,0,3.0,8.0,59,0.00,,---,0.00,VWS V14.00,2013-03-01 17:04:00,
2013-03-01 12:05:00,39.3,26.2,29.57,North,359,1.0,8.0,59,0.00,,---,0.00,VWS V14.00,2013-03-01 17:05:00,
2013-03-01 12:06:00,39.5,26.4,29.57,NNW,335,2.0,8.0,59,0.00,,---,0.00,VWS V14.00,2013-03-01 17:06:00,
2013-03-01 12:09:00,39.5,26.4,29.57,NNW,346,0.0,8.0,59,0.00,,---,0.00,VWS V14.00,2013-03-01 17:09:00,
2013-03-01 12:10:00,39.5,26.4,29.57,NNW,346,0.0,8.0,59,0.00,,---,0.00,VWS V14.00,2013-03-01 17:10:00,
2013-03-01 12:11:00,39.5,26.4,29.57,North,359,2.0,8.0,59,0.00,,---,0.00,VWS V14.00,2013-03-01 17:11:00,
2013-03-01 12:14:00,39.5,26.4,29.56,North,353,2.0,8.0,59,0.00,,---,0.00,VWS V14.00,2013-03-01 17:14:00,
2013-03-01 12:15:00,39.5,26.4,29.56,North,353,0.0,2.0,59,0.00,,---,0.00,VWS V14.00,2013-03-01 17:15:00,
2013-03-01 12:17:00,39.5,26.4,29.56,NNW,344,5.0,6.0,59,0.00,,---,0.00,VWS V14.00,2013-03-01 17:17:00,
2013-03-01 12:19:00,39.5,26.4,29.56,NNW,346,3.0,7.0,59,0.00,,---,0.00,VWS V14.00,2013-03-01 17:19:00,
2013-03-01 12:20:00,39.6,26.5,29.56,NNW,343,1.0,7.0,59,0.00,,---,0.00,VWS V14.00,2013-03-01 17:20:00,
2013-03-01 12:22:00,39.6,26.5,29.56,North,359,2.0,7.0,59,0.00,,---,0.00,VWS V14.00,2013-03-01 17:22:00,
2013-03-01 12:24:00,39.6,26.5,29.56,North,349,0.0,7.0,59,0.00,,---,0.00,VWS V14.00,2013-03-01 17:24:00,
2013-03-01 12:25:00,39.6,26.5,29.56,NW,321,3.0,7.0,59,0.00,,---,0.00,VWS V14.00,2013-03-01 17:25:00,
2013-03-01 12:27:00,39.6,26.5,29.56,North,358,0.0,7.0,59,0.00,,---,0.00,VWS V14.00,2013-03-01 17:27:00,
2013-03-01 12:29:00,39.6,26.5,29.56,NW,325,3.0,7.0,59,0.00,,---,0.00,VWS V14.00,2013-03-01 17:29:00,
2013-03-01 12:30:00,39.6,26.5,29.56,NNW,329,2.0,4.0,59,0.00,,---,0.00,VWS V14.00,2013-03-01 17:30:00,
2013-03-01 12:32:00,39.6,26.5,29.56,NNW,339,0.0,4.0,59,0.00,,---,0.00,VWS V14.00,2013-03-01 17:32:00,
2013-03-01 12:34:00,39.6,26.5,29.56,NNW,346,4.0,5.0,59,0.00,,---,0.00,VWS V14.00,2013-03-01 17:34:00,
2013-03-01 12:35:00,39.6,26.5,29.56,NNW,339,1.0,6.0,59,0.00,,---,0.00,VWS V14.00,2013-03-01 17:35:00,
2013-03-01 12:37:00,39.6,26.5,29.56,WNW,287,2.0,6.0,59,0.00,,---,0.00,VWS V14.00,2013-03-01 17:37:00,
2013-03-01 12:39:00,39.6,26.1,29.56,North,358,6.0,7.0,58,0.00,,---,0.00,VWS V14.00,2013-03-01 17:39:00,
2013-03-01 12:40:00,39.6,26.1,29.56,NW,319,2.0,7.0,58,0.00,,---,0.00,VWS V14.00,2013-03-01 17:40:00,
2013-03-01 12:41:00,39.6,26.5,29.56,NNW,340,11.0,11.0,59,0.00,,---,0.00,VWS V14.00,2013-03-01 17:41:00,
2013-03-01 12:42:00,39.6,26.1,29.56,North,352,5.0,12.0,58,0.00,,---,0.00,VWS V14.00,2013-03-01 17:42:00,
2013-03-01 12:44:00,39.5,26.4,29.56,NW,315,4.0,12.0,59,0.00,,---,0.00,VWS V14.00,2013-03-01 17:44:00,
2013-03-01 12:45:00,39.5,26.4,29.56,NNW,346,0.0,3.0,59,0.00,,---,0.00,VWS V14.00,2013-03-01 17:45:00,
2013-03-01 12:46:00,39.5,26.4,29.56,NW,308,4.0,4.0,59,0.00,,---,0.00,VWS V14.00,2013-03-01 17:46:00,
2013-03-01 12:48:00,39.5,26.4,29.56,NNW,329,2.0,4.0,59,0.00,,---,0.00,VWS V14.00,2013-03-01 17:48:00,
2013-03-01 12:49:00,39.5,26.4,29.56,NNW,339,1.0,4.0,59,0.00,,---,0.00,VWS V14.00,2013-03-01 17:49:00,
2013-03-01 12:50:00,39.5,26.4,29.56,North,3,1.0,4.0,59,0.00,,---,0.00,VWS V14.00,2013-03-01 17:50:00,
2013-03-01 12:51:00,39.5,26.4,29.56,North,359,4.0,9.0,59,0.00,,---,0.00,VWS V14.00,2013-03-01 17:51:00,
2013-03-01 12:53:00,39.5,26.4,29.56,North,352,6.0,9.0,59,0.00,,---,0.00,VWS V14.00,2013-03-01 17:53:00,
2013-03-01 12:54:00,39.5,26.4,29.56,North,356,0.0,9.0,59,0.00,,---,0.00,VWS V14.00,2013-03-01 17:54:00,
2013-03-01 12:55:00,39.5,26.4,29.56,North,356,0.0,9.0,59,0.00,,---,0.00,VWS V14.00,2013-03-01 17:55:00,
2013-03-01 12:56:00,39.5,26.4,29.56,NNW,337,3.0,9.0,59,0.00,,---,0.00,VWS V14.00,2013-03-01 17:56:00,
2013-03-01 12:58:00,39.6,26.5,29.56,NNW,339,2.0,9.0,59,0.00,,---,0.00,VWS V14.00,2013-03-01 17:58:00,
2013-03-01 12:59:00,39.6,26.5,29.55,NNW,328,3.0,3.0,59,0.00,,---,0.00,VWS V14.00,2013-03-01 17:59:00,
2013-03-01 13:00:00,39.6,26.1,29.55,NE,37,1.0,4.0,58,0.00,,---,0.00,VWS V14.00,2013-03-01 18:00:00,
2013-03-01 13:01:00,39.6,26.1,29.55,NE,37,1.0,4.0,58,0.00,,---,0.00,VWS V14.00,2013-03-01 18:01:00,
2013-03-01 13:03:00,39.6,26.5,29.55,NNW,330,8.0,8.0,59,0.00,,---,0.00,VWS V14.00,2013-03-01 18:03:00,
2013-03-01 13:04:00,39.6,26.1,29.55,North,1,2.0,12.0,58,0.00,,---,0.00,VWS V14.00,2013-03-01 18:04:00,
2013-03-01 13:05:00,39.6,26.5,29.55,North,352,4.0,12.0,59,0.00,,---,0.00,VWS V14.00,2013-03-01 18:05:00,
2013-03-01 13:06:00,39.6,26.1,29.55,NNW,344,1.0,12.0,58,0.00,,---,0.00,VWS V14.00,2013-03-01 18:06:00,
2013-03-01 13:08:00,39.6,26.1,29.55,NNE,24,1.0,12.0,58,0.00,,---,0.00,VWS V14.00,2013-03-01 18:08:00,
2013-03-01 13:09:00,39.6,26.1,29.55,NNW,335,0.0,12.0,58,0.00,,---,0.00,VWS V14.00,2013-03-01 18:09:00,
2013-03-01 13:10:00,39.6,26.1,29.55,NW,321,3.0,12.0,58,0.00,,---,0.00,VWS V14.00,2013-03-01 18:10:00,
2013-03-01 13:11:00,39.6,26.5,29.55,North,358,1.0,12.0,59,0.00,,---,0.00,VWS V14.00,2013-03-01 18:11:00,
2013-03-01 13:13:00,39.6,26.1,29.55,NNW,328,2.0,12.0,58,0.00,,---,0.00,VWS V14.00,2013-03-01 18:13:00,
2013-03-01 13:15:00,39.6,26.1,29.56,NNW,345,2.0,3.0,58,0.00,,---,0.00,VWS V14.00,2013-03-01 18:15:00,
2013-03-01 13:16:00,39.6,26.5,29.56,North,357,1.0,5.0,59,0.00,,---,0.00,VWS V14.00,2013-03-01 18:16:00,
2013-03-01 13:18:00,39.6,26.1,29.56,North,357,1.0,5.0,58,0.00,,---,0.00,VWS V14.00,2013-03-01 18:18:00,
2013-03-01 13:20:00,39.6,26.5,29.56,North,357,1.0,5.0,59,0.00,,---,0.00,VWS V14.00,2013-03-01 18:20:00,
2013-03-01 13:21:00,39.6,26.5,29.56,North,357,1.0,5.0,59,0.00,,---,0.00,VWS V14.00,2013-03-01 18:21:00,
2013-03-01 13:23:00,39.6,26.1,29.56,NNW,335,4.0,6.0,58,0.00,,---,0.00,VWS V14.00,2013-03-01 18:23:00,
2013-03-01 13:25:00,39.6,26.1,29.56,NNW,336,3.0,8.0,58,0.00,,---,0.00,VWS V14.00,2013-03-01 18:25:00,
2013-03-01 13:26:00,39.5,26.0,29.56,North,4,3.0,9.0,58,0.00,,---,0.00,VWS V14.00,2013-03-01 18:26:00,
2013-03-01 13:28:00,39.5,26.0,29.56,NNW,347,3.0,9.0,58,0.00,,---,0.00,VWS V14.00,2013-03-01 18:28:00,
2013-03-01 13:30:00,39.5,26.0,29.56,North,351,2.0,4.0,58,0.00,,---,0.00,VWS V14.00,2013-03-01 18:30:00,
2013-03-01 13:31:00,39.5,26.0,29.56,NNW,341,4.0,4.0,58,0.00,,---,0.00,VWS V14.00,2013-03-01 18:31:00,
2013-03-01 13:33:00,39.5,26.0,29.56,NNW,347,0.0,4.0,58,0.00,,---,0.00,VWS V14.00,2013-03-01 18:33:00,
2013-03-01 13:35:00,39.5,26.0,29.56,East,82,0.0,4.0,58,0.00,,---,0.00,VWS V14.00,2013-03-01 18:35:00,
2013-03-01 13:36:00,39.5,26.4,29.56,North,5,3.0,4.0,59,0.00,,---,0.00,VWS V14.00,2013-03-01 18:36:00,
2013-03-01 13:38:00,39.5,26.0,29.56,NNW,333,2.0,4.0,58,0.00,,---,0.00,VWS V14.00,2013-03-01 18:38:00,
2013-03-01 13:40:00,39.5,26.0,29.56,NNW,338,0.0,4.0,58,0.00,,---,0.00,VWS V14.00,2013-03-01 18:40:00,
2013-03-01 13:41:00,39.5,26.0,29.56,NNW,338,2.0,4.0,58,0.00,,---,0.00,VWS V14.00,2013-03-01 18:41:00,
2013-03-01 13:43:00,39.5,26.0,29.56,North,354,3.0,8.0,58,0.00,,---,0.00,VWS V14.00,2013-03-01 18:43:00,
2013-03-01 13:45:00,39.5,26.0,29.56,NNW,339,2.0,3.0,58,0.00,,---,0.00,VWS V14.00,2013-03-01 18:45:00,
2013-03-01 13:46:00,39.5,26.0,29.56,NNW,340,1.0,3.0,58,0.00,,---,0.00,VWS V14.00,2013-03-01 18:46:00,
2013-03-01 13:48:00,39.5,26.0,29.56,NNW,342,0.0,3.0,58,0.00,,---,0.00,VWS V14.00,2013-03-01 18:48:00,
2013-03-01 13:50:00,39.5,26.0,29.56,NNW,342,0.0,3.0,58,0.00,,---,0.00,VWS V14.00,2013-03-01 18:50:00,
2013-03-01 13:51:00,39.5,26.0,29.56,NNW,342,1.0,3.0,58,0.00,,---,0.00,VWS V14.00,2013-03-01 18:51:00,
2013-03-01 13:53:00,39.5,26.0,29.56,NNW,347,0.0,3.0,58,0.00,,---,0.00,VWS V14.00,2013-03-01 18:53:00,
2013-03-01 13:55:00,39.5,26.0,29.56,NNW,347,1.0,3.0,58,0.00,,---,0.00,VWS V14.00,2013-03-01 18:55:00,
2013-03-01 13:56:00,39.5,26.0,29.56,NNW,347,1.0,3.0,58,0.00,,---,0.00,VWS V14.00,2013-03-01 18:56:00,
2013-03-01 13:57:00,39.5,26.0,29.56,North,0,2.0,3.0,58,0.00,,---,0.00,VWS V14.00,2013-03-01 18:57:00,
2013-03-01 13:59:00,39.5,26.0,29.56,North,359,1.0,3.0,58,0.00,,---,0.00,VWS V14.00,2013-03-01 18:59:00,
2013-03-01 14:00:00,39.5,26.0,29.56,NNW,345,3.0,5.0,58,0.00,,---,0.00,VWS V14.00,2013-03-01 19:00:00,
2013-03-01 14:02:00,39.5,26.0,29.56,North,349,1.0,5.0,58,0.00,,---,0.00,VWS V14.00,2013-03-01 19:02:00,
2013-03-01 14:04:00,39.3,25.8,29.56,NW,326,2.0,5.0,58,0.00,,---,0.00,VWS V14.00,2013-03-01 19:04:00,
2013-03-01 14:05:00,39.3,25.8,29.56,NW,326,1.0,5.0,58,0.00,,---,0.00,VWS V14.00,2013-03-01 19:05:00,
2013-03-01 14:07:00,39.3,25.8,29.56,NNW,335,7.0,7.0,58,0.00,,---,0.00,VWS V14.00,2013-03-01 19:07:00,
2013-03-01 14:09:00,39.3,25.8,29.56,NNW,335,4.0,7.0,58,0.00,,---,0.00,VWS V14.00,2013-03-01 19:09:00,
2013-03-01 14:11:00,39.3,25.8,29.56,NNW,330,3.0,7.0,58,0.00,,---,0.00,VWS V14.00,2013-03-01 19:11:00,
2013-03-01 14:12:00,39.3,25.8,29.56,NNW,335,2.0,7.0,58,0.00,,---,0.00,VWS V14.00,2013-03-01 19:12:00,
2013-03-01 14:14:00,39.3,25.8,29.56,NNW,335,1.0,7.0,58,0.00,,---,0.00,VWS V14.00,2013-03-01 19:14:00,
2013-03-01 14:15:00,39.2,25.3,29.57,NNW,329,4.0,6.0,57,0.00,,---,0.00,VWS V14.00,2013-03-01 19:15:00,
2013-03-01 14:16:00,39.2,25.7,29.56,North,349,3.0,4.0,58,0.00,,---,0.00,VWS V14.00,2013-03-01 19:16:00,
2013-03-01 14:17:00,39.2,25.7,29.56,North,349,2.0,4.0,58,0.00,,---,0.00,VWS V14.00,2013-03-01 19:17:00,
2013-03-01 14:19:00,39.2,25.7,29.56,NW,320,7.0,7.0,58,0.00,,---,0.00,VWS V14.00,2013-03-01 19:19:00,
2013-03-01 14:21:00,39.2,25.7,29.56,North,355,2.0,7.0,58,0.00,,---,0.00,VWS V14.00,2013-03-01 19:21:00,
2013-03-01 14:22:00,39.2,25.7,29.56,NNW,330,2.0,7.0,58,0.00,,---,0.00,VWS V14.00,2013-03-01 19:22:00,
2013-03-01 14:23:00,39.2,25.7,29.56,NNW,330,2.0,7.0,58,0.00,,---,0.00,VWS V14.00,2013-03-01 19:23:00,
2013-03-01 14:24:00,39.2,25.7,29.56,North,350,3.0,9.0,58,0.00,,---,0.00,VWS V14.00,2013-03-01 19:24:00,
2013-03-01 14:26:00,39.2,25.7,29.56,North,0,3.0,9.0,58,0.00,,---,0.00,VWS V14.00,2013-03-01 19:26:00,
2013-03-01 14:27:00,39.2,25.7,29.56,NNW,334,3.0,9.0,58,0.00,,---,0.00,VWS V14.00,2013-03-01 19:27:00,
2013-03-01 14:28:00,39.2,25.7,29.56,NNW,334,1.0,9.0,58,0.00,,---,0.00,VWS V14.00,2013-03-01 19:28:00,
2013-03-01 14:29:00,39.2,25.7,29.56,North,353,0.0,9.0,58,0.00,,---,0.00,VWS V14.00,2013-03-01 19:29:00,
2013-03-01 14:30:00,39.1,25.2,29.57,NNW,337,0.0,7.0,57,0.00,,---,0.00,VWS V14.00,2013-03-01 19:30:00,
2013-03-01 14:31:00,39.2,25.7,29.56,North,1,1.0,3.0,58,0.00,,---,0.00,VWS V14.00,2013-03-01 19:31:00,
2013-03-01 14:32:00,39.2,25.7,29.56,North,1,0.0,3.0,58,0.00,,---,0.00,VWS V14.00,2013-03-01 19:32:00,
2013-03-01 14:33:00,39.3,25.8,29.56,North,1,1.0,3.0,58,0.00,,---,0.00,VWS V14.00,2013-03-01 19:33:00,
2013-03-01 14:34:00,39.3,25.8,29.56,North,1,0.0,3.0,58,0.00,,---,0.00,VWS V14.00,2013-03-01 19:34:00,
2013-03-01 14:36:00,39.5,26.0,29.56,North,1,0.0,3.0,58,0.00,,---,0.00,VWS V14.00,2013-03-01 19:36:00,
2013-03-01 14:37:00,39.5,26.0,29.56,North,1,0.0,3.0,58,0.00,,---,0.00,VWS V14.00,2013-03-01 19:37:00,
2013-03-01 14:38:00,39.5,26.0,29.56,North,1,1.0,3.0,58,0.00,,---,0.00,VWS V14.00,2013-03-01 19:38:00,
2013-03-01 14:39:00,39.5,26.0,29.56,North,1,0.0,3.0,58,0.00,,---,0.00,VWS V14.00,2013-03-01 19:39:00,
2013-03-01 14:42:00,39.5,25.5,29.56,NNW,335,3.0,3.0,57,0.00,,---,0.00,VWS V14.00,2013-03-01 19:42:00,
2013-03-01 14:43:00,39.6,26.1,29.56,North,359,2.0,3.0,58,0.00,,---,0.00,VWS V14.00,2013-03-01 19:43:00,
2013-03-01 14:44:00,39.6,26.1,29.56,NNW,346,3.0,3.0,58,0.00,,---,0.00,VWS V14.00,2013-03-01 19:44:00,
2013-03-01 14:45:00,38.9,25.4,29.57,NNW,338,0.0,6.0,58,0.00,,---,0.00,VWS V14.00,2013-03-01 19:45:00,
2013-03-01 14:47:00,39.5,25.5,29.56,North,354,4.0,4.0,57,0.00,,---,0.00,VWS V14.00,2013-03-01 19:47:00,
2013-03-01 14:48:00,39.5,25.5,29.56,North,354,3.0,4.0,57,0.00,,---,0.00,VWS V14.00,2013-03-01 19:48:00,
2013-03-01 14:49:00,39.5,25.5,29.56,NW,323,3.0,4.0,57,0.00,,---,0.00,VWS V14.00,2013-03-01 19:49:00,
2013-03-01 14:52:00,39.5,25.5,29.56,NNE,18,1.0,4.0,57,0.00,,---,0.00,VWS V14.00,2013-03-01 19:52:00,
2013-03-01 14:53:00,39.5,25.5,29.56,NNE,18,0.0,4.0,57,0.00,,---,0.00,VWS V14.00,2013-03-01 19:53:00,
2013-03-01 14:54:00,39.5,25.5,29.56,North,355,1.0,4.0,57,0.00,,---,0.00,VWS V14.00,2013-03-01 19:54:00,
2013-03-01 14:57:00,39.5,25.5,29.56,North,354,1.0,4.0,57,0.00,,---,0.00,VWS V14.00,2013-03-01 19:57:00,
2013-03-01 14:58:00,39.5,25.5,29.56,North,11,2.0,4.0,57,0.00,,---,0.00,VWS V14.00,2013-03-01 19:58:00,
2013-03-01 15:00:00,39.5,25.5,29.57,NNW,328,6.0,6.0,57,0.00,,---,0.00,VWS V14.00,2013-03-01 20:00:00,
2013-03-01 15:02:00,39.5,25.5,29.57,NNW,347,0.0,6.0,57,0.00,,---,0.00,VWS V14.00,2013-03-01 20:02:00,
2013-03-01 15:03:00,39.5,25.5,29.57,NNW,347,0.0,6.0,57,0.00,,---,0.00,VWS V14.00,2013-03-01 20:03:00,
2013-03-01 15:05:00,39.5,25.5,29.57,NNW,340,2.0,6.0,57,0.00,,---,0.00,VWS V14.00,2013-03-01 20:05:00,
2013-03-01 15:07:00,39.3,24.9,29.57,North,359,0.0,6.0,56,0.00,,---,0.00,VWS V14.00,2013-03-01 20:07:00,
2013-03-01 15:08:00,39.3,25.4,29.57,North,359,1.0,6.0,57,0.00,,---,0.00,VWS V14.00,2013-03-01 20:08:00,
2013-03-01 15:09:00,39.3,25.4,29.57,North,354,2.0,6.0,57,0.00,,---,0.00,VWS V14.00,2013-03-01 20:09:00,
2013-03-01 15:10:00,39.3,25.4,29.57,North,354,1.0,6.0,57,0.00,,---,0.00,VWS V14.00,2013-03-01 20:10:00,
2013-03-01 15:12:00,39.3,25.4,29.57,North,355,2.0,6.0,57,0.00,,---,0.00,VWS V14.00,2013-03-01 20:12:00,
2013-03-01 15:13:00,39.3,25.4,29.57,North,355,0.0,6.0,57,0.00,,---,0.00,VWS V14.00,2013-03-01 20:13:00,
2013-03-01 15:14:00,39.3,25.4,29.57,NNW,338,4.0,6.0,57,0.00,,---,0.00,VWS V14.00,2013-03-01 20:14:00,
2013-03-01 15:15:00,39.2,25.3,29.57,North,359,0.0,4.0,57,0.00,,---,0.00,VWS V14.00,2013-03-01 20:15:00,
2013-03-01 15:17:00,39.2,25.7,29.57,North,359,1.0,4.0,58,0.00,,---,0.00,VWS V14.00,2013-03-01 20:17:00,
2013-03-01 15:18:00,39.2,25.7,29.57,North,359,3.0,4.0,58,0.00,,---,0.00,VWS V14.00,2013-03-01 20:18:00,
2013-03-01 15:19:00,39.2,25.3,29.57,North,359,2.0,4.0,57,0.00,,---,0.00,VWS V14.00,2013-03-01 20:19:00,
2013-03-01 15:20:00,39.2,25.7,29.57,North,359,1.0,4.0,58,0.00,,---,0.00,VWS V14.00,2013-03-01 20:20:00,
2013-03-01 15:23:00,39.2,25.3,29.57,North,1,3.0,7.0,57,0.00,,---,0.00,VWS V14.00,2013-03-01 20:23:00,
2013-03-01 15:24:00,39.2,25.3,29.57,North,10,2.0,7.0,57,0.00,,---,0.00,VWS V14.00,2013-03-01 20:24:00,
2013-03-01 15:25:00,39.2,25.3,29.57,NW,325,1.0,7.0,57,0.00,,---,0.00,VWS V14.00,2013-03-01 20:25:00,
2013-03-01 15:28:00,39.1,25.2,29.57,NNW,340,1.0,7.0,57,0.00,,---,0.00,VWS V14.00,2013-03-01 20:28:00,
2013-03-01 15:29:00,39.1,25.2,29.57,NNW,337,0.0,7.0,57,0.00,,---,0.00,VWS V14.00,2013-03-01 20:29:00,
2013-03-01 15:30:00,39.1,25.2,29.57,NNW,329,4.0,6.0,57,0.00,,---,0.00,VWS V14.00,2013-03-01 20:30:00,
2013-03-01 15:33:00,38.9,25.0,29.57,North,351,2.0,6.0,57,0.00,,---,0.00,VWS V14.00,2013-03-01 20:33:00,
2013-03-01 15:34:00,38.9,25.4,29.57,NNW,346,1.0,6.0,58,0.00,,---,0.00,VWS V14.00,2013-03-01 20:34:00,
2013-03-01 15:35:00,38.9,25.0,29.57,NNW,342,3.0,6.0,57,0.00,,---,0.00,VWS V14.00,2013-03-01 20:35:00,
2013-03-01 15:38:00,38.9,25.0,29.57,North,356,1.0,6.0,57,0.00,,---,0.00,VWS V14.00,2013-03-01 20:38:00,
2013-03-01 15:39:00,38.9,25.0,29.57,North,355,4.0,6.0,57,0.00,,---,0.00,VWS V14.00,2013-03-01 20:39:00,
2013-03-01 15:40:00,38.9,25.0,29.57,NNW,345,1.0,6.0,57,0.00,,---,0.00,VWS V14.00,2013-03-01 20:40:00,
2013-03-01 15:43:00,38.9,25.4,29.57,NNW,345,0.0,6.0,58,0.00,,---,0.00,VWS V14.00,2013-03-01 20:43:00,
2013-03-01 15:44:00,38.9,25.4,29.57,NNW,339,1.0,2.0,58,0.00,,---,0.00,VWS V14.00,2013-03-01 20:44:00,
2013-03-01 15:45:00,38.9,25.4,29.57,North,0,3.0,3.0,58,0.00,,---,0.00,VWS V14.00,2013-03-01 20:45:00,
2013-03-01 15:48:00,38.9,25.4,29.57,North,359,1.0,4.0,58,0.00,,---,0.00,VWS V14.00,2013-03-01 20:48:00,
2013-03-01 15:49:00,38.9,25.4,29.57,NNW,334,2.0,4.0,58,0.00,,---,0.00,VWS V14.00,2013-03-01 20:49:00,
2013-03-01 15:51:00,38.9,25.0,29.57,NNW,330,3.0,4.0,57,0.00,,---,0.00,VWS V14.00,2013-03-01 20:51:00,
2013-03-01 15:53:00,38.9,25.0,29.57,NNW,347,0.0,6.0,57,0.00,,---,0.00,VWS V14.00,2013-03-01 20:53:00,
2013-03-01 15:54:00,38.9,25.4,29.57,NNW,347,0.0,6.0,58,0.00,,---,0.00,VWS V14.00,2013-03-01 20:54:00,
2013-03-01 15:56:00,38.9,25.4,29.57,NNW,347,2.0,6.0,58,0.00,,---,0.00,VWS V14.00,2013-03-01 20:56:00,
2013-03-01 15:58:00,38.9,25.4,29.57,NNW,345,3.0,6.0,58,0.00,,---,0.00,VWS V14.00,2013-03-01 20:58:00,
2013-03-01 15:59:00,38.9,25.4,29.57,NNW,343,1.0,6.0,58,0.00,,---,0.00,VWS V14.00,2013-03-01 20:59:00,
2013-03-01 16:00:00,38.9,25.4,29.57,NNW,343,0.0,1.0,58,0.00,,---,0.00,VWS V14.00,2013-03-01 21:00:00,
2013-03-01 16:01:00,38.9,25.4,29.57,NNW,347,3.0,3.0,58,0.00,,---,0.00,VWS V14.00,2013-03-01 21:01:00,
2013-03-01 16:03:00,38.9,25.4,29.57,NNW,347,0.0,3.0,58,0.00,,---,0.00,VWS V14.00,2013-03-01 21:03:00,
2013-03-01 16:04:00,38.9,25.4,29.57,NNW,347,0.0,3.0,58,0.00,,---,0.00,VWS V14.00,2013-03-01 21:04:00,
2013-03-01 16:05:00,38.9,25.4,29.57,NNW,347,0.0,3.0,58,0.00,,---,0.00,VWS V14.00,2013-03-01 21:05:00,
2013-03-01 16:06:00,38.9,25.4,29.57,NNW,347,0.0,3.0,58,0.00,,---,0.00,VWS V14.00,2013-03-01 21:06:00,
2013-03-01 16:08:00,38.9,25.4,29.57,NNW,342,2.0,4.0,58,0.00,,---,0.00,VWS V14.00,2013-03-01 21:08:00,
2013-03-01 16:09:00,38.9,25.4,29.57,NNW,342,2.0,4.0,58,0.00,,---,0.00,VWS V14.00,2013-03-01 21:09:00,
2013-03-01 16:10:00,38.9,25.4,29.57,NNW,342,1.0,4.0,58,0.00,,---,0.00,VWS V14.00,2013-03-01 21:10:00,
2013-03-01 16:11:00,38.9,25.4,29.57,NNW,330,2.0,4.0,58,0.00,,---,0.00,VWS V14.00,2013-03-01 21:11:00,
2013-03-01 16:13:00,38.9,25.4,29.58,NNW,346,0.0,4.0,58,0.00,,---,0.00,VWS V14.00,2013-03-01 21:13:00,
2013-03-01 16:14:00,38.9,25.4,29.58,NNW,345,2.0,4.0,58,0.00,,---,0.00,VWS V14.00,2013-03-01 21:14:00,
2013-03-01 16:15:00,38.9,25.4,29.58,NNW,347,0.0,3.0,58,0.00,,---,0.00,VWS V14.00,2013-03-01 21:15:00,
2013-03-01 16:17:00,38.9,25.4,29.58,NNW,339,2.0,4.0,58,0.00,,---,0.00,VWS V14.00,2013-03-01 21:17:00,
2013-03-01 16:19:00,38.9,25.4,29.58,North,0,1.0,5.0,58,0.00,,---,0.00,VWS V14.00,2013-03-01 21:19:00,
2013-03-01 16:20:00,38.9,25.4,29.58,North,0,0.0,5.0,58,0.00,,---,0.00,VWS V14.00,2013-03-01 21:20:00,
2013-03-01 16:22:00,38.9,25.4,29.58,North,0,0.0,5.0,58,0.00,,---,0.00,VWS V14.00,2013-03-01 21:22:00,
2013-03-01 16:24:00,38.8,25.3,29.58,North,357,2.0,5.0,58,0.00,,---,0.00,VWS V14.00,2013-03-01 21:24:00,
2013-03-01 16:25:00,38.8,25.3,29.58,North,357,0.0,5.0,58,0.00,,---,0.00,VWS V14.00,2013-03-01 21:25:00,
2013-03-01 16:27:00,38.8,25.3,29.58,NW,324,2.0,5.0,58,0.00,,---,0.00,VWS V14.00,2013-03-01 21:27:00,
2013-03-01 16:29:00,38.8,25.3,29.58,NNW,334,3.0,6.0,58,0.00,,---,0.00,VWS V14.00,2013-03-01 21:29:00,
2013-03-01 16:30:00,38.8,25.3,29.58,NNW,346,1.0,3.0,58,0.00,,---,0.00,VWS V14.00,2013-03-01 21:30:00,
2013-03-01 16:32:00,38.8,25.3,29.58,North,354,1.0,4.0,58,0.00,,---,0.00,VWS V14.00,2013-03-01 21:32:00,
2013-03-01 16:34:00,38.8,25.3,29.58,North,352,2.0,4.0,58,0.00,,---,0.00,VWS V14.00,2013-03-01 21:34:00,
2013-03-01 16:36:00,38.8,25.3,29.58,NNE,18,0.0,4.0,58,0.00,,---,0.00,VWS V14.00,2013-03-01 21:36:00,
2013-03-01 16:37:00,38.8,25.3,29.58,NNE,18,1.0,4.0,58,0.00,,---,0.00,VWS V14.00,2013-03-01 21:37:00,
2013-03-01 16:39:00,38.8,25.7,29.58,NNE,18,1.0,4.0,59,0.00,,---,0.00,VWS V14.00,2013-03-01 21:39:00,
2013-03-01 16:41:00,38.8,25.3,29.58,North,353,1.0,4.0,58,0.00,,---,0.00,VWS V14.00,2013-03-01 21:41:00,
2013-03-01 16:42:00,38.8,25.7,29.58,North,352,0.0,4.0,59,0.00,,---,0.00,VWS V14.00,2013-03-01 21:42:00,
2013-03-01 16:44:00,38.6,25.1,29.58,North,353,2.0,4.0,58,0.00,,---,0.00,VWS V14.00,2013-03-01 21:44:00,
2013-03-01 16:45:00,38.2,25.1,29.60,NNW,327,0.0,6.0,59,0.00,,---,0.00,VWS V14.00,2013-03-01 21:45:00,
2013-03-01 16:46:00,38.6,25.1,29.58,NNW,335,4.0,5.0,58,0.00,,---,0.00,VWS V14.00,2013-03-01 21:46:00,
2013-03-01 16:47:00,38.6,25.1,29.58,NNW,335,0.0,5.0,58,0.00,,---,0.00,VWS V14.00,2013-03-01 21:47:00,
2013-03-01 16:49:00,38.6,25.5,29.58,NNW,339,2.0,5.0,59,0.00,,---,0.00,VWS V14.00,2013-03-01 21:49:00,
2013-03-01 16:51:00,38.6,25.5,29.58,NNW,339,0.0,5.0,59,0.00,,---,0.00,VWS V14.00,2013-03-01 21:51:00,
2013-03-01 16:52:00,38.6,25.5,29.58,NNW,339,1.0,5.0,59,0.00,,---,0.00,VWS V14.00,2013-03-01 21:52:00,
2013-03-01 16:54:00,38.6,25.5,29.58,NNW,348,0.0,5.0,59,0.00,,---,0.00,VWS V14.00,2013-03-01 21:54:00,
2013-03-01 16:55:00,38.6,25.5,29.58,NNW,348,0.0,5.0,59,0.00,,---,0.00,VWS V14.00,2013-03-01 21:55:00,
2013-03-01 16:56:00,38.6,25.5,29.58,NNW,347,0.0,5.0,59,0.00,,---,0.00,VWS V14.00,2013-03-01 21:56:00,
2013-03-01 16:57:00,38.6,25.5,29.58,NNW,347,0.0,5.0,59,0.00,,---,0.00,VWS V14.00,2013-03-01 21:57:00,
2013-03-01 16:59:00,38.6,25.5,29.59,NNW,347,0.0,0.0,59,0.00,,---,0.00,VWS V14.00,2013-03-01 21:59:00,
2013-03-01 17:00:00,38.6,25.5,29.59,North,11,1.0,1.0,59,0.00,,---,0.00,VWS V14.00,2013-03-01 22:00:00,
2013-03-01 17:01:00,38.6,25.5,29.59,NE,53,2.0,3.0,59,0.00,,---,0.00,VWS V14.00,2013-03-01 22:01:00,
2013-03-01 17:02:00,38.6,25.5,29.59,NE,48,0.0,3.0,59,0.00,,---,0.00,VWS V14.00,2013-03-01 22:02:00,
2013-03-01 17:04:00,38.6,25.5,29.59,NE,48,1.0,3.0,59,0.00,,---,0.00,VWS V14.00,2013-03-01 22:04:00,
2013-03-01 17:05:00,38.6,25.5,29.59,NE,47,1.0,3.0,59,0.00,,---,0.00,VWS V14.00,2013-03-01 22:05:00,
2013-03-01 17:06:00,38.5,25.4,29.59,NE,47,2.0,3.0,59,0.00,,---,0.00,VWS V14.00,2013-03-01 22:06:00,
2013-03-01 17:07:00,38.5,25.4,29.59,NE,47,0.0,3.0,59,0.00,,---,0.00,VWS V14.00,2013-03-01 22:07:00,
2013-03-01 17:09:00,38.5,25.4,29.59,NE,46,0.0,3.0,59,0.00,,---,0.00,VWS V14.00,2013-03-01 22:09:00,
2013-03-01 17:10:00,38.5,25.4,29.59,NE,46,0.0,3.0,59,0.00,,---,0.00,VWS V14.00,2013-03-01 22:10:00,
2013-03-01 17:11:00,38.5,25.4,29.59,NE,46,0.0,3.0,59,0.00,,---,0.00,VWS V14.00,2013-03-01 22:11:00,
2013-03-01 17:12:00,38.5,25.4,29.59,NE,45,1.0,3.0,59,0.00,,---,0.00,VWS V14.00,2013-03-01 22:12:00,
2013-03-01 17:15:00,38.5,25.8,29.59,NE,45,0.0,1.0,60,0.00,,---,0.00,VWS V14.00,2013-03-01 22:15:00,
2013-03-01 17:16:00,38.3,25.6,29.59,NW,307,3.0,3.0,60,0.00,,---,0.00,VWS V14.00,2013-03-01 22:16:00,
2013-03-01 17:17:00,38.3,25.6,29.59,NNW,330,1.0,3.0,60,0.00,,---,0.00,VWS V14.00,2013-03-01 22:17:00,
2013-03-01 17:20:00,38.3,25.6,29.59,NNE,13,2.0,3.0,60,0.00,,---,0.00,VWS V14.00,2013-03-01 22:20:00,
2013-03-01 17:22:00,38.3,25.6,29.59,NNE,13,0.0,3.0,60,0.00,,---,0.00,VWS V14.00,2013-03-01 22:22:00,
2013-03-01 17:25:00,38.3,25.6,29.59,NNE,15,0.0,3.0,60,0.00,,---,0.00,VWS V14.00,2013-03-01 22:25:00,
2013-03-01 17:27:00,38.2,25.5,29.59,NNE,15,0.0,3.0,60,0.00,,---,0.00,VWS V14.00,2013-03-01 22:27:00,
2013-03-01 17:30:00,38.2,25.5,29.59,NNE,15,1.0,1.0,60,0.00,,---,0.00,VWS V14.00,2013-03-01 22:30:00,
2013-03-01 17:32:00,38.2,25.5,29.59,NNE,15,1.0,2.0,60,0.00,,---,0.00,VWS V14.00,2013-03-01 22:32:00,
2013-03-01 17:35:00,38.2,25.5,29.59,North,4,1.0,3.0,60,0.00,,---,0.00,VWS V14.00,2013-03-01 22:35:00,
2013-03-01 17:37:00,38.2,25.5,29.59,NNW,331,3.0,6.0,60,0.00,,---,0.00,VWS V14.00,2013-03-01 22:37:00,
2013-03-01 17:40:00,38.2,25.5,29.59,NNW,331,2.0,6.0,60,0.00,,---,0.00,VWS V14.00,2013-03-01 22:40:00,
2013-03-01 17:41:00,38.2,25.5,29.59,NNW,332,2.0,6.0,60,0.00,,---,0.00,VWS V14.00,2013-03-01 22:41:00,
2013-03-01 17:42:00,38.2,25.1,29.59,NW,326,3.0,6.0,59,0.00,,---,0.00,VWS V14.00,2013-03-01 22:42:00,
2013-03-01 17:43:00,38.2,25.1,29.59,NNW,327,1.0,6.0,59,0.00,,---,0.00,VWS V14.00,2013-03-01 22:43:00,
2013-03-01 17:45:00,37.6,25.4,29.61,NNW,331,1.0,4.0,61,0.00,,---,0.00,VWS V14.00,2013-03-01 22:45:00,
2013-03-01 17:46:00,38.2,25.5,29.60,NNW,327,1.0,2.0,60,0.00,,---,0.00,VWS V14.00,2013-03-01 22:46:00,
2013-03-01 17:47:00,38.2,25.5,29.60,NNW,327,0.0,2.0,60,0.00,,---,0.00,VWS V14.00,2013-03-01 22:47:00,
2013-03-01 17:48:00,38.2,25.5,29.60,NNW,327,1.0,2.0,60,0.00,,---,0.00,VWS V14.00,2013-03-01 22:48:00,
2013-03-01 17:51:00,38.0,25.4,29.60,North,1,0.0,3.0,60,0.00,,---,0.00,VWS V14.00,2013-03-01 22:51:00,
2013-03-01 17:53:00,38.0,25.4,29.60,North,1,1.0,3.0,60,0.00,,---,0.00,VWS V14.00,2013-03-01 22:53:00,
2013-03-01 17:56:00,38.0,25.4,29.60,NNW,333,2.0,5.0,60,0.00,,---,0.00,VWS V14.00,2013-03-01 22:56:00,
2013-03-01 17:58:00,38.0,25.4,29.60,NNW,340,2.0,5.0,60,0.00,,---,0.00,VWS V14.00,2013-03-01 22:58:00,
2013-03-01 18:00:00,37.6,25.0,29.61,North,11,0.0,3.0,60,0.00,,---,0.00,VWS V14.00,2013-03-01 23:00:00,
2013-03-01 18:01:00,38.0,25.4,29.60,NW,322,1.0,3.0,60,0.00,,---,0.00,VWS V14.00,2013-03-01 23:01:00,
2013-03-01 18:03:00,38.0,25.4,29.60,NNE,32,0.0,4.0,60,0.00,,---,0.00,VWS V14.00,2013-03-01 23:03:00,
2013-03-01 18:06:00,38.0,25.4,29.60,North,0,0.0,4.0,60,0.00,,---,0.00,VWS V14.00,2013-03-01 23:06:00,
2013-03-01 18:08:00,37.9,25.3,29.60,NNW,338,1.0,4.0,60,0.00,,---,0.00,VWS V14.00,2013-03-01 23:08:00,
2013-03-01 18:11:00,37.9,25.3,29.60,NNW,338,1.0,4.0,60,0.00,,---,0.00,VWS V14.00,2013-03-01 23:11:00,
2013-03-01 18:13:00,37.9,25.3,29.60,NNW,338,0.0,4.0,60,0.00,,---,0.00,VWS V14.00,2013-03-01 23:13:00,
2013-03-01 18:15:00,37.6,25.0,29.61,North,350,0.0,6.0,60,0.00,,---,0.00,VWS V14.00,2013-03-01 23:15:00,
2013-03-01 18:16:00,37.9,25.3,29.61,NNW,338,1.0,2.0,60,0.00,,---,0.00,VWS V14.00,2013-03-01 23:16:00,
2013-03-01 18:17:00,37.9,25.3,29.61,NNW,338,0.0,2.0,60,0.00,,---,0.00,VWS V14.00,2013-03-01 23:17:00,
2013-03-01 18:18:00,37.9,25.3,29.61,NNW,338,2.0,2.0,60,0.00,,---,0.00,VWS V14.00,2013-03-01 23:18:00,
2013-03-01 18:19:00,37.9,25.3,29.61,NNW,338,0.0,2.0,60,0.00,,---,0.00,VWS V14.00,2013-03-01 23:19:00,
2013-03-01 18:21:00,37.8,25.2,29.61,North,1,2.0,2.0,60,0.00,,---,0.00,VWS V14.00,2013-03-01 23:21:00,
2013-03-01 18:22:00,37.9,25.3,29.61,North,1,1.0,2.0,60,0.00,,---,0.00,VWS V14.00,2013-03-01 23:22:00,
2013-03-01 18:23:00,37.8,25.2,29.61,NNW,330,0.0,3.0,60,0.00,,---,0.00,VWS V14.00,2013-03-01 23:23:00,
2013-03-01 18:24:00,37.8,25.2,29.61,NNW,330,0.0,3.0,60,0.00,,---,0.00,VWS V14.00,2013-03-01 23:24:00,
2013-03-01 18:26:00,37.8,25.2,29.61,NNW,330,0.0,3.0,60,0.00,,---,0.00,VWS V14.00,2013-03-01 23:26:00,
2013-03-01 18:27:00,37.8,25.2,29.61,NNW,330,0.0,3.0,60,0.00,,---,0.00,VWS V14.00,2013-03-01 23:27:00,
2013-03-01 18:28:00,37.8,25.2,29.61,NNW,330,0.0,3.0,60,0.00,,---,0.00,VWS V14.00,2013-03-01 23:28:00,
2013-03-01 18:29:00,37.8,25.2,29.61,NNW,330,0.0,3.0,60,0.00,,---,0.00,VWS V14.00,2013-03-01 23:29:00,
2013-03-01 18:30:00,37.6,25.0,29.61,NNW,333,0.0,9.0,60,0.00,,---,0.00,VWS V14.00,2013-03-01 23:30:00,
2013-03-01 18:31:00,37.8,25.6,29.61,NNW,330,0.0,0.0,61,0.00,,---,0.00,VWS V14.00,2013-03-01 23:31:00,
2013-03-01 18:32:00,37.8,25.6,29.61,NNW,330,0.0,0.0,61,0.00,,---,0.00,VWS V14.00,2013-03-01 23:32:00,
2013-03-01 18:33:00,37.8,25.6,29.61,NNW,333,3.0,4.0,61,0.00,,---,0.00,VWS V14.00,2013-03-01 23:33:00,
2013-03-01 18:34:00,37.8,25.6,29.61,NNW,332,1.0,4.0,61,0.00,,---,0.00,VWS V14.00,2013-03-01 23:34:00,
2013-03-01 18:37:00,37.8,25.2,29.61,NNW,332,0.0,4.0,60,0.00,,---,0.00,VWS V14.00,2013-03-01 23:37:00,
2013-03-01 18:38:00,37.6,25.4,29.61,NNW,332,0.0,4.0,61,0.00,,---,0.00,VWS V14.00,2013-03-01 23:38:00,
2013-03-01 18:39:00,37.6,25.4,29.61,NNW,332,0.0,4.0,61,0.00,,---,0.00,VWS V14.00,2013-03-01 23:39:00,
2013-03-01 18:42:00,37.6,25.0,29.61,NNW,331,0.0,4.0,60,0.00,,---,0.00,VWS V14.00,2013-03-01 23:42:00,
2013-03-01 18:43:00,37.6,25.0,29.61,NNW,331,0.0,4.0,60,0.00,,---,0.00,VWS V14.00,2013-03-01 23:43:00,
2013-03-01 18:44:00,37.6,25.4,29.61,NNW,331,1.0,4.0,61,0.00,,---,0.00,VWS V14.00,2013-03-01 23:44:00,
2013-03-01 18:45:00,37.5,24.9,29.62,North,11,1.0,5.0,60,0.00,,---,0.00,VWS V14.00,2013-03-01 23:45:00,
2013-03-01 18:47:00,37.6,25.4,29.61,NNW,331,0.0,1.0,61,0.00,,---,0.00,VWS V14.00,2013-03-01 23:47:00,
2013-03-01 18:48:00,37.6,25.4,29.61,NNW,331,0.0,2.0,61,0.00,,---,0.00,VWS V14.00,2013-03-01 23:48:00,
2013-03-01 18:50:00,37.6,25.4,29.61,NNW,332,0.0,2.0,61,0.00,,---,0.00,VWS V14.00,2013-03-01 23:50:00,
2013-03-01 18:52:00,37.6,25.4,29.61,NE,41,1.0,3.0,61,0.00,,---,0.00,VWS V14.00,2013-03-01 23:52:00,
2013-03-01 18:54:00,37.6,25.4,29.61,NNW,340,1.0,3.0,61,0.00,,---,0.00,VWS V14.00,2013-03-01 23:54:00,
2013-03-01 18:55:00,37.6,25.4,29.61,NNW,340,1.0,3.0,61,0.00,,---,0.00,VWS V14.00,2013-03-01 23:55:00,
2013-03-01 18:57:00,37.6,25.0,29.61,North,8,0.0,3.0,60,0.00,,---,0.00,VWS V14.00,2013-03-01 23:57:00,
2013-03-01 18:59:00,37.6,25.0,29.61,North,11,1.0,1.0,60,0.00,,---,0.00,VWS V14.00,2013-03-01 23:59:00,
2013-03-01 19:00:00,37.6,25.0,29.61,North,359,2.0,4.0,60,0.00,,---,0.00,VWS V14.00,2013-03-02 00:00:00,
2013-03-01 19:02:00,37.6,25.0,29.61,NNE,13,1.0,4.0,60,0.00,,---,0.00,VWS V14.00,2013-03-02 00:02:00,
2013-03-01 19:04:00,37.6,25.0,29.61,NNW,342,3.0,4.0,60,0.00,,---,0.00,VWS V14.00,2013-03-02 00:04:00,
2013-03-01 19:05:00,37.6,25.0,29.61,NNW,342,1.0,4.0,60,0.00,,---,0.00,VWS V14.00,2013-03-02 00:05:00,
2013-03-01 19:07:00,37.6,25.0,29.61,NNW,342,0.0,4.0,60,0.00,,---,0.00,VWS V14.00,2013-03-02 00:07:00,
2013-03-01 19:09:00,37.6,25.0,29.61,North,354,2.0,5.0,60,0.00,,---,0.00,VWS V14.00,2013-03-02 00:09:00,
2013-03-01 19:10:00,37.6,25.0,29.61,North,1,0.0,6.0,60,0.00,,---,0.00,VWS V14.00,2013-03-02 00:10:00,
2013-03-01 19:12:00,37.6,25.0,29.61,NW,314,2.0,6.0,60,0.00,,---,0.00,VWS V14.00,2013-03-02 00:12:00,
2013-03-01 19:13:00,37.6,25.0,29.61,North,1,3.0,6.0,60,0.00,,---,0.00,VWS V14.00,2013-03-02 00:13:00,
2013-03-01 19:14:00,37.6,25.0,29.61,North,350,0.0,0.0,60,0.00,,---,0.00,VWS V14.00,2013-03-02 00:14:00,
2013-03-01 19:15:00,37.6,25.0,29.61,NW,323,0.0,9.0,60,0.00,,---,0.00,VWS V14.00,2013-03-02 00:15:00,
2013-03-01 19:17:00,37.6,25.0,29.61,NNW,341,2.0,9.0,60,0.00,,---,0.00,VWS V14.00,2013-03-02 00:17:00,
2013-03-01 19:18:00,37.6,25.0,29.61,NNW,341,2.0,9.0,60,0.00,,---,0.00,VWS V14.00,2013-03-02 00:18:00,
2013-03-01 19:19:00,37.6,25.0,29.61,North,1,4.0,9.0,60,0.00,,---,0.00,VWS V14.00,2013-03-02 00:19:00,
2013-03-01 19:20:00,37.6,24.6,29.61,North,356,2.0,9.0,59,0.00,,---,0.00,VWS V14.00,2013-03-02 00:20:00,
2013-03-01 19:23:00,37.6,25.0,29.61,North,357,1.0,9.0,60,0.00,,---,0.00,VWS V14.00,2013-03-02 00:23:00,
2013-03-01 19:25:00,37.6,25.0,29.61,North,357,1.0,9.0,60,0.00,,---,0.00,VWS V14.00,2013-03-02 00:25:00,
2013-03-01 19:28:00,37.6,25.0,29.61,North,359,1.0,9.0,60,0.00,,---,0.00,VWS V14.00,2013-03-02 00:28:00,
2013-03-01 19:30:00,37.6,25.0,29.61,NNW,333,0.0,1.0,60,0.00,,---,0.00,VWS V14.00,2013-03-02 00:30:00,
2013-03-01 19:33:00,37.6,25.0,29.61,NNW,336,0.0,3.0,60,0.00,,---,0.00,VWS V14.00,2013-03-02 00:33:00,
2013-03-01 19:35:00,37.6,25.0,29.61,North,355,1.0,3.0,60,0.00,,---,0.00,VWS V14.00,2013-03-02 00:35:00,
2013-03-01 19:36:00,37.5,24.9,29.61,NNE,27,1.0,3.0,60,0.00,,---,0.00,VWS V14.00,2013-03-02 00:36:00,
2013-03-01 19:38:00,37.5,24.9,29.61,NNE,16,2.0,5.0,60,0.00,,---,0.00,VWS V14.00,2013-03-02 00:38:00,
2013-03-01 19:40:00,37.5,24.9,29.61,North,5,2.0,5.0,60,0.00,,---,0.00,VWS V14.00,2013-03-02 00:40:00,
2013-03-01 19:41:00,37.5,24.9,29.61,North,5,1.0,5.0,60,0.00,,---,0.00,VWS V14.00,2013-03-02 00:41:00,
2013-03-01 19:43:00,37.5,24.9,29.61,North,1,0.0,5.0,60,0.00,,---,0.00,VWS V14.00,2013-03-02 00:43:00,
2013-03-01 19:45:00,37.5,24.9,29.62,North,359,0.0,3.0,60,0.00,,---,0.00,VWS V14.00,2013-03-02 00:45:00,
2013-03-01 19:46:00,37.5,24.9,29.62,North,359,2.0,3.0,60,0.00,,---,0.00,VWS V14.00,2013-03-02 00:46:00,
2013-03-01 19:48:00,37.5,24.9,29.62,North,8,0.0,3.0,60,0.00,,---,0.00,VWS V14.00,2013-03-02 00:48:00,
2013-03-01 19:50:00,37.5,25.3,29.62,North,8,0.0,3.0,61,0.00,,---,0.00,VWS V14.00,2013-03-02 00:50:00,
2013-03-01 19:51:00,37.5,25.3,29.62,North,8,1.0,3.0,61,0.00,,---,0.00,VWS V14.00,2013-03-02 00:51:00,
2013-03-01 19:53:00,37.3,25.1,29.62,North,8,1.0,3.0,61,0.00,,---,0.00,VWS V14.00,2013-03-02 00:53:00,
2013-03-01 19:55:00,37.3,25.1,29.62,North,1,0.0,3.0,61,0.00,,---,0.00,VWS V14.00,2013-03-02 00:55:00,
2013-03-01 19:56:00,37.3,25.1,29.62,North,1,1.0,3.0,61,0.00,,---,0.00,VWS V14.00,2013-03-02 00:56:00,
2013-03-01 19:58:00,37.3,25.1,29.62,NNW,331,1.0,3.0,61,0.00,,---,0.00,VWS V14.00,2013-03-02 00:58:00,
2013-03-01 20:00:00,36.6,25.2,29.62,NNW,344,0.0,4.0,63,0.00,,---,0.00,VWS V14.00,2013-03-02 01:00:00,
2013-03-01 20:01:00,37.3,25.1,29.62,NNW,330,0.0,3.0,61,0.00,,---,0.00,VWS V14.00,2013-03-02 01:01:00,
2013-03-01 20:03:00,37.3,25.1,29.62,NNW,330,0.0,3.0,61,0.00,,---,0.00,VWS V14.00,2013-03-02 01:03:00,
2013-03-01 20:06:00,37.3,25.1,29.62,NNW,330,1.0,3.0,61,0.00,,---,0.00,VWS V14.00,2013-03-02 01:06:00,
2013-03-01 20:08:00,37.2,25.4,29.62,NNW,327,3.0,4.0,62,0.00,,---,0.00,VWS V14.00,2013-03-02 01:08:00,
2013-03-01 20:09:00,37.2,25.4,29.62,NNW,339,3.0,5.0,62,0.00,,---,0.00,VWS V14.00,2013-03-02 01:09:00,
2013-03-01 20:11:00,37.2,25.4,29.62,North,351,0.0,7.0,62,0.00,,---,0.00,VWS V14.00,2013-03-02 01:11:00,
2013-03-01 20:13:00,37.2,25.4,29.62,North,354,3.0,7.0,62,0.00,,---,0.00,VWS V14.00,2013-03-02 01:13:00,
2013-03-01 20:14:00,37.2,25.4,29.62,North,354,2.0,7.0,62,0.00,,---,0.00,VWS V14.00,2013-03-02 01:14:00,
2013-03-01 20:15:00,36.5,25.1,29.62,NNW,337,3.0,6.0,63,0.00,,---,0.00,VWS V14.00,2013-03-02 01:15:00,
2013-03-01 20:16:00,37.2,25.4,29.62,NNW,327,3.0,5.0,62,0.00,,---,0.00,VWS V14.00,2013-03-02 01:16:00,
2013-03-01 20:17:00,37.2,25.4,29.62,North,354,4.0,5.0,62,0.00,,---,0.00,VWS V14.00,2013-03-02 01:17:00,
2013-03-01 20:18:00,37.2,25.4,29.62,North,350,1.0,7.0,62,0.00,,---,0.00,VWS V14.00,2013-03-02 01:18:00,
2013-03-01 20:19:00,37.2,25.4,29.62,North,350,1.0,7.0,62,0.00,,---,0.00,VWS V14.00,2013-03-02 01:19:00,
2013-03-01 20:21:00,37.2,25.4,29.62,NNW,346,0.0,7.0,62,0.00,,---,0.00,VWS V14.00,2013-03-02 01:21:00,
2013-03-01 20:22:00,37.2,25.4,29.62,NNW,346,0.0,7.0,62,0.00,,---,0.00,VWS V14.00,2013-03-02 01:22:00,
2013-03-01 20:23:00,37.0,25.2,29.62,NNW,347,1.0,7.0,62,0.00,,---,0.00,VWS V14.00,2013-03-02 01:23:00,
2013-03-01 20:24:00,37.0,25.2,29.62,NNW,347,2.0,7.0,62,0.00,,---,0.00,VWS V14.00,2013-03-02 01:24:00,
2013-03-01 20:26:00,37.0,25.2,29.62,North,359,0.0,7.0,62,0.00,,---,0.00,VWS V14.00,2013-03-02 01:26:00,
2013-03-01 20:27:00,37.0,25.2,29.62,North,359,1.0,7.0,62,0.00,,---,0.00,VWS V14.00,2013-03-02 01:27:00,
2013-03-01 20:29:00,37.0,25.2,29.62,NNW,345,2.0,7.0,62,0.00,,---,0.00,VWS V14.00,2013-03-02 01:29:00,
2013-03-01 20:30:00,36.5,25.5,29.62,NNW,343,0.0,5.0,64,0.00,,---,0.00,VWS V14.00,2013-03-02 01:30:00,
2013-03-01 20:32:00,37.0,25.2,29.62,NNW,332,3.0,5.0,62,0.00,,---,0.00,VWS V14.00,2013-03-02 01:32:00,
2013-03-01 20:34:00,37.0,25.2,29.62,NNW,348,0.0,5.0,62,0.00,,---,0.00,VWS V14.00,2013-03-02 01:34:00,
2013-03-01 20:37:00,36.9,25.1,29.62,NNW,343,1.0,9.0,62,0.00,,---,0.00,VWS V14.00,2013-03-02 01:37:00,
2013-03-01 20:39:00,36.9,25.5,29.62,NNW,343,1.0,9.0,63,0.00,,---,0.00,VWS V14.00,2013-03-02 01:39:00,
2013-03-01 20:42:00,36.9,25.5,29.62,NNE,17,0.0,9.0,63,0.00,,---,0.00,VWS V14.00,2013-03-02 01:42:00,
2013-03-01 20:43:00,36.9,25.5,29.62,NNE,17,0.0,9.0,63,0.00,,---,0.00,VWS V14.00,2013-03-02 01:43:00,
2013-03-01 20:44:00,36.9,25.5,29.62,NNW,335,1.0,9.0,63,0.00,,---,0.00,VWS V14.00,2013-03-02 01:44:00,
2013-03-01 20:45:00,36.3,25.3,29.62,NNW,332,0.0,6.0,64,0.00,,---,0.00,VWS V14.00,2013-03-02 01:45:00,
2013-03-01 20:47:00,36.8,25.4,29.62,NNW,338,0.0,4.0,63,0.00,,---,0.00,VWS V14.00,2013-03-02 01:47:00,
2013-03-01 20:48:00,36.8,25.4,29.62,NNW,338,1.0,4.0,63,0.00,,---,0.00,VWS V14.00,2013-03-02 01:48:00,
2013-03-01 20:49:00,36.8,25.4,29.62,NNW,338,0.0,4.0,63,0.00,,---,0.00,VWS V14.00,2013-03-02 01:49:00,
2013-03-01 20:52:00,36.8,25.4,29.62,NNW,338,2.0,4.0,63,0.00,,---,0.00,VWS V14.00,2013-03-02 01:52:00,
2013-03-01 20:53:00,36.8,25.4,29.62,NNW,334,3.0,4.0,63,0.00,,---,0.00,VWS V14.00,2013-03-02 01:53:00,
2013-03-01 20:54:00,36.8,25.4,29.62,NNW,342,0.0,4.0,63,0.00,,---,0.00,VWS V14.00,2013-03-02 01:54:00,
2013-03-01 20:58:00,36.8,25.4,29.62,NNW,343,0.0,4.0,63,0.00,,---,0.00,VWS V14.00,2013-03-02 01:58:00,
2013-03-01 20:59:00,36.6,25.2,29.62,NNW,343,0.0,0.0,63,0.00,,---,0.00,VWS V14.00,2013-03-02 01:59:00,
2013-03-01 21:00:00,36.2,25.6,29.62,NW,326,2.0,6.0,65,0.00,,---,0.00,VWS V14.00,2013-03-02 02:00:00,
2013-03-01 21:03:00,36.6,25.2,29.62,North,7,3.0,4.0,63,0.00,,---,0.00,VWS V14.00,2013-03-02 02:03:00,
2013-03-01 21:04:00,36.6,25.2,29.62,NNW,342,3.0,4.0,63,0.00,,---,0.00,VWS V14.00,2013-03-02 02:04:00,
2013-03-01 21:05:00,36.6,25.2,29.62,NNW,342,2.0,4.0,63,0.00,,---,0.00,VWS V14.00,2013-03-02 02:05:00,
2013-03-01 21:08:00,36.6,25.2,29.62,NNW,335,4.0,5.0,63,0.00,,---,0.00,VWS V14.00,2013-03-02 02:08:00,
2013-03-01 21:09:00,36.6,25.2,29.62,NNW,329,3.0,6.0,63,0.00,,---,0.00,VWS V14.00,2013-03-02 02:09:00,
2013-03-01 21:10:00,36.6,25.2,29.62,NNW,335,2.0,6.0,63,0.00,,---,0.00,VWS V14.00,2013-03-02 02:10:00,
2013-03-01 21:13:00,36.6,25.2,29.62,North,359,0.0,6.0,63,0.00,,---,0.00,VWS V14.00,2013-03-02 02:13:00,
2013-03-01 21:14:00,36.5,25.1,29.62,NNW,337,2.0,3.0,63,0.00,,---,0.00,VWS V14.00,2013-03-02 02:14:00,
2013-03-01 21:15:00,36.5,25.1,29.62,NNW,337,0.0,3.0,63,0.00,,---,0.00,VWS V14.00,2013-03-02 02:15:00,
2013-03-01 21:18:00,36.5,25.5,29.62,North,0,1.0,4.0,64,0.00,,---,0.00,VWS V14.00,2013-03-02 02:18:00,
2013-03-01 21:20:00,36.5,25.5,29.62,NNW,330,0.0,4.0,64,0.00,,---,0.00,VWS V14.00,2013-03-02 02:20:00,
2013-03-01 21:23:00,36.5,25.5,29.62,North,356,1.0,4.0,64,0.00,,---,0.00,VWS V14.00,2013-03-02 02:23:00,
2013-03-01 21:25:00,36.5,25.5,29.62,NNW,339,4.0,5.0,64,0.00,,---,0.00,VWS V14.00,2013-03-02 02:25:00,
2013-03-01 21:28:00,36.5,24.7,29.62,NNW,345,2.0,5.0,62,0.00,,---,0.00,VWS V14.00,2013-03-02 02:28:00,
2013-03-01 21:30:00,36.5,25.5,29.62,NNW,343,0.0,2.0,64,0.00,,---,0.00,VWS V14.00,2013-03-02 02:30:00,
2013-03-01 21:31:00,36.5,25.5,29.62,NNW,343,2.0,2.0,64,0.00,,---,0.00,VWS V14.00,2013-03-02 02:31:00,
2013-03-01 21:33:00,36.5,25.5,29.62,North,352,1.0,6.0,64,0.00,,---,0.00,VWS V14.00,2013-03-02 02:33:00,
2013-03-01 21:35:00,36.3,25.3,29.62,North,4,2.0,6.0,64,0.00,,---,0.00,VWS V14.00,2013-03-02 02:35:00,
2013-03-01 21:36:00,36.3,25.3,29.62,North,4,1.0,6.0,64,0.00,,---,0.00,VWS V14.00,2013-03-02 02:36:00,
2013-03-01 21:38:00,36.3,25.3,29.62,North,4,0.0,6.0,64,0.00,,---,0.00,VWS V14.00,2013-03-02 02:38:00,
2013-03-01 21:41:00,36.3,25.3,29.62,NNW,331,3.0,6.0,64,0.00,,---,0.00,VWS V14.00,2013-03-02 02:41:00,
2013-03-01 21:43:00,36.3,25.3,29.62,NNW,332,0.0,6.0,64,0.00,,---,0.00,VWS V14.00,2013-03-02 02:43:00,
2013-03-01 21:44:00,36.3,25.3,29.62,NNW,332,0.0,6.0,64,0.00,,---,0.00,VWS V14.00,2013-03-02 02:44:00,
2013-03-01 21:45:00,35.8,25.6,29.62,NNW,338,0.0,4.0,66,0.00,,---,0.00,VWS V14.00,2013-03-02 02:45:00,
2013-03-01 21:46:00,36.2,25.2,29.62,NNW,339,0.0,3.0,64,0.00,,---,0.00,VWS V14.00,2013-03-02 02:46:00,
2013-03-01 21:48:00,36.2,25.6,29.62,NNW,339,0.0,3.0,65,0.00,,---,0.00,VWS V14.00,2013-03-02 02:48:00,
2013-03-01 21:49:00,36.2,25.6,29.62,NNW,339,0.0,3.0,65,0.00,,---,0.00,VWS V14.00,2013-03-02 02:49:00,
2013-03-01 21:51:00,36.2,25.6,29.62,NE,52,2.0,3.0,65,0.00,,---,0.00,VWS V14.00,2013-03-02 02:51:00,
2013-03-01 21:53:00,36.2,25.6,29.62,NNW,342,3.0,6.0,65,0.00,,---,0.00,VWS V14.00,2013-03-02 02:53:00,
2013-03-01 21:54:00,36.2,25.6,29.62,NNW,342,1.0,6.0,65,0.00,,---,0.00,VWS V14.00,2013-03-02 02:54:00,
2013-03-01 21:56:00,36.2,25.6,29.62,NNW,343,1.0,6.0,65,0.00,,---,0.00,VWS V14.00,2013-03-02 02:56:00,
2013-03-01 21:58:00,36.2,25.6,29.62,NNW,343,2.0,6.0,65,0.00,,---,0.00,VWS V14.00,2013-03-02 02:58:00,
2013-03-01 21:59:00,36.2,25.6,29.62,NW,326,3.0,6.0,65,0.00,,---,0.00,VWS V14.00,2013-03-02 02:59:00,
2013-03-01 22:00:00,35.6,25.4,29.62,NNW,347,3.0,6.0,66,0.00,,---,0.00,VWS V14.00,2013-03-02 03:00:00,
2013-03-01 22:01:00,36.0,25.4,29.62,NNW,343,2.0,3.0,65,0.00,,---,0.00,VWS V14.00,2013-03-02 03:01:00,
2013-03-01 22:03:00,36.0,25.4,29.62,NNW,339,0.0,3.0,65,0.00,,---,0.00,VWS V14.00,2013-03-02 03:03:00,
2013-03-01 22:04:00,36.0,25.4,29.62,NNW,339,0.0,3.0,65,0.00,,---,0.00,VWS V14.00,2013-03-02 03:04:00,
2013-03-01 22:06:00,36.0,25.4,29.62,NNW,340,0.0,3.0,65,0.00,,---,0.00,VWS V14.00,2013-03-02 03:06:00,
2013-03-01 22:09:00,36.0,25.4,29.62,NNW,331,1.0,4.0,65,0.00,,---,0.00,VWS V14.00,2013-03-02 03:09:00,
2013-03-01 22:11:00,36.0,25.4,29.62,NNW,341,0.0,4.0,65,0.00,,---,0.00,VWS V14.00,2013-03-02 03:11:00,
2013-03-01 22:14:00,36.0,25.4,29.62,NNW,337,0.0,4.0,65,0.00,,---,0.00,VWS V14.00,2013-03-02 03:14:00,
2013-03-01 22:15:00,35.6,25.4,29.62,NNW,347,0.0,11.0,66,0.00,,---,0.00,VWS V14.00,2013-03-02 03:15:00,
2013-03-01 22:16:00,36.0,25.4,29.62,NNW,337,1.0,2.0,65,0.00,,---,0.00,VWS V14.00,2013-03-02 03:16:00,
2013-03-01 22:19:00,35.9,25.3,29.62,NNW,337,3.0,5.0,65,0.00,,---,0.00,VWS V14.00,2013-03-02 03:19:00,
2013-03-01 22:21:00,35.9,25.3,29.62,North,352,5.0,7.0,65,0.00,,---,0.00,VWS V14.00,2013-03-02 03:21:00,
2013-03-01 22:24:00,35.9,25.3,29.62,NNW,329,3.0,7.0,65,0.00,,---,0.00,VWS V14.00,2013-03-02 03:24:00,
2013-03-01 22:26:00,35.9,25.3,29.62,NNW,330,0.0,7.0,65,0.00,,---,0.00,VWS V14.00,2013-03-02 03:26:00,
2013-03-01 22:29:00,35.9,25.3,29.62,North,1,0.0,0.0,65,0.00,,---,0.00,VWS V14.00,2013-03-02 03:29:00,
2013-03-01 22:30:00,35.5,24.9,29.62,NNW,345,1.0,7.0,65,0.00,,---,0.00,VWS V14.00,2013-03-02 03:30:00,
2013-03-01 22:31:00,35.9,25.3,29.62,NNW,328,3.0,4.0,65,0.00,,---,0.00,VWS V14.00,2013-03-02 03:31:00,
2013-03-01 22:34:00,35.9,25.3,29.62,NNW,338,0.0,4.0,65,0.00,,---,0.00,VWS V14.00,2013-03-02 03:34:00,
2013-03-01 22:36:00,35.9,25.7,29.62,NNW,338,0.0,4.0,66,0.00,,---,0.00,VWS V14.00,2013-03-02 03:36:00,
2013-03-01 22:39:00,35.9,25.7,29.62,NNW,338,1.0,4.0,66,0.00,,---,0.00,VWS V14.00,2013-03-02 03:39:00,
2013-03-01 22:41:00,35.9,25.7,29.62,NNW,338,1.0,4.0,66,0.00,,---,0.00,VWS V14.00,2013-03-02 03:41:00,
2013-03-01 22:44:00,35.8,25.6,29.62,NNW,338,0.0,0.0,66,0.00,,---,0.00,VWS V14.00,2013-03-02 03:44:00,
2013-03-01 22:45:00,35.3,25.1,29.61,NNW,341,0.0,7.0,66,0.00,,---,0.00,VWS V14.00,2013-03-02 03:45:00,
2013-03-01 22:46:00,35.8,25.6,29.62,NNW,330,1.0,4.0,66,0.00,,---,0.00,VWS V14.00,2013-03-02 03:46:00,
2013-03-01 22:47:00,35.8,25.6,29.62,NNW,330,2.0,4.0,66,0.00,,---,0.00,VWS V14.00,2013-03-02 03:47:00,
2013-03-01 22:49:00,35.8,25.6,29.62,North,1,2.0,4.0,66,0.00,,---,0.00,VWS V14.00,2013-03-02 03:49:00,
2013-03-01 22:51:00,35.8,25.6,29.62,North,349,0.0,4.0,66,0.00,,---,0.00,VWS V14.00,2013-03-02 03:51:00,
2013-03-01 22:52:00,35.8,25.6,29.62,North,349,0.0,4.0,66,0.00,,---,0.00,VWS V14.00,2013-03-02 03:52:00,
2013-03-01 22:54:00,35.8,25.6,29.62,NNW,347,0.0,4.0,66,0.00,,---,0.00,VWS V14.00,2013-03-02 03:54:00,
2013-03-01 22:56:00,35.8,25.6,29.62,NNW,347,0.0,4.0,66,0.00,,---,0.00,VWS V14.00,2013-03-02 03:56:00,
2013-03-01 22:57:00,35.8,25.6,29.62,NNW,347,1.0,4.0,66,0.00,,---,0.00,VWS V14.00,2013-03-02 03:57:00,
2013-03-01 22:59:00,35.6,25.4,29.62,NNW,347,2.0,2.0,66,0.00,,---,0.00,VWS V14.00,2013-03-02 03:59:00,
2013-03-01 23:00:00,35.6,25.4,29.62,NNW,347,2.0,2.0,66,0.00,,---,0.00,VWS V14.00,2013-03-02 04:00:00,
2013-03-01 23:02:00,35.6,25.4,29.62,NNW,332,2.0,4.0,66,0.00,,---,0.00,VWS V14.00,2013-03-02 04:02:00,
2013-03-01 23:05:00,35.6,25.4,29.62,NNW,335,4.0,4.0,66,0.00,,---,0.00,VWS V14.00,2013-03-02 04:05:00,
2013-03-01 23:07:00,35.6,25.4,29.62,NNW,335,0.0,4.0,66,0.00,,---,0.00,VWS V14.00,2013-03-02 04:07:00,
2013-03-01 23:10:00,35.6,25.4,29.62,NNW,333,2.0,5.0,66,0.00,,---,0.00,VWS V14.00,2013-03-02 04:10:00,
2013-03-01 23:12:00,35.6,25.4,29.62,NNW,346,0.0,11.0,66,0.00,,---,0.00,VWS V14.00,2013-03-02 04:12:00,
2013-03-01 23:15:00,35.6,25.4,29.62,NNW,347,0.0,0.0,66,0.00,,---,0.00,VWS V14.00,2013-03-02 04:15:00,
2013-03-01 23:17:00,35.5,25.3,29.62,NNW,347,0.0,3.0,66,0.00,,---,0.00,VWS V14.00,2013-03-02 04:17:00,
2013-03-01 23:20:00,35.5,25.3,29.62,NNW,342,0.0,3.0,66,0.00,,---,0.00,VWS V14.00,2013-03-02 04:20:00,
2013-03-01 23:22:00,35.5,25.3,29.62,NNW,348,0.0,3.0,66,0.00,,---,0.00,VWS V14.00,2013-03-02 04:22:00,
2013-03-01 23:25:00,35.5,24.9,29.62,North,10,2.0,7.0,65,0.00,,---,0.00,VWS V14.00,2013-03-02 04:25:00,
2013-03-01 23:27:00,35.5,24.9,29.62,North,354,0.0,7.0,65,0.00,,---,0.00,VWS V14.00,2013-03-02 04:27:00,
2013-03-01 23:30:00,35.5,25.3,29.62,NNW,332,5.0,5.0,66,0.00,,---,0.00,VWS V14.00,2013-03-02 04:30:00,
2013-03-01 23:32:00,35.5,24.9,29.62,North,359,6.0,7.0,65,0.00,,---,0.00,VWS V14.00,2013-03-02 04:32:00,
2013-03-01 23:35:00,35.5,24.9,29.62,NNW,329,1.0,7.0,65,0.00,,---,0.00,VWS V14.00,2013-03-02 04:35:00,
2013-03-01 23:37:00,35.5,25.3,29.62,NNW,329,2.0,7.0,66,0.00,,---,0.00,VWS V14.00,2013-03-02 04:37:00,
2013-03-01 23:38:00,35.5,25.3,29.62,NNW,329,0.0,7.0,66,0.00,,---,0.00,VWS V14.00,2013-03-02 04:38:00,
2013-03-01 23:40:00,35.3,25.1,29.62,NNW,331,1.0,7.0,66,0.00,,---,0.00,VWS V14.00,2013-03-02 04:40:00,
2013-03-01 23:42:00,35.3,25.1,29.62,NNW,346,0.0,7.0,66,0.00,,---,0.00,VWS V14.00,2013-03-02 04:42:00,
2013-03-01 23:43:00,35.3,25.1,29.62,NNW,346,2.0,7.0,66,0.00,,---,0.00,VWS V14.00,2013-03-02 04:43:00,
2013-03-01 23:45:00,35.3,25.1,29.61,NNW,339,1.0,5.0,66,0.00,,---,0.00,VWS V14.00,2013-03-02 04:45:00,
2013-03-01 23:46:00,35.3,25.1,29.61,NNW,339,0.0,5.0,66,0.00,,---,0.00,VWS V14.00,2013-03-02 04:46:00,
2013-03-01 23:48:00,35.3,25.1,29.61,NNW,339,1.0,5.0,66,0.00,,---,0.00,VWS V14.00,2013-03-02 04:48:00,
2013-03-01 23:51:00,35.3,25.1,29.61,NNW,339,0.0,5.0,66,0.00,,---,0.00,VWS V14.00,2013-03-02 04:51:00,
2013-03-01 23:53:00,35.3,25.1,29.61,North,0,0.0,5.0,66,0.00,,---,0.00,VWS V14.00,2013-03-02 04:53:00,
2013-03-01 23:56:00,35.3,25.1,29.61,NNW,338,3.0,5.0,66,0.00,,---,0.00,VWS V14.00,2013-03-02 04:56:00,
2013-03-01 23:58:00,35.2,25.0,29.61,NNW,346,3.0,6.0,66,0.00,,---,0.00,VWS V14.00,2013-03-02 04:58:00,